Latitude: N 50° 09' 49" Longitude: W 05° 11' 53" Elevation: 168m ASL

There are 3 visitors online

Adverts

<- Previous Day | Today | Next Day ->

All Data for 19 January 2018

Time
A - D
Temp
A - D
Dew Point
A - D
Humidity
A - D
Pressure
A - D
Wind
A - D
Wind Dir Gust
A - D
Rain Rate
A - D
Rain Total
00:01 4.6 4.2 97 1011.2 13.0 SW 15.2 0.0 0.0
00:02 4.6 4.2 97 1011.2 13.0 SW 15.2 0.0 0.0
00:04 4.6 4.2 97 1011.1 13.0 SW 15.2 0.0 0.0
00:05 4.6 4.2 97 1011.1 13.0 SW 15.2 0.0 0.0
00:07 4.6 4.2 97 1010.9 13.6 SW 15.2 0.0 0.0
00:08 4.6 4.2 97 1010.9 12.1 SW 15.2 0.0 0.0
00:10 4.6 4.2 97 1011.0 11.4 SW 15.2 0.0 0.0
00:12 4.6 4.2 97 1010.9 8.3 SW 13.6 0.0 0.0
00:13 4.6 4.2 97 1010.9 9.8 SW 13.6 0.0 0.0
00:14 4.6 4.2 97 1010.8 9.8 SW 13.6 0.0 0.0
00:16 4.6 4.2 97 1010.8 9.2 SW 13.6 0.0 0.0
00:17 4.6 4.2 97 1010.9 6.9 SW 12.1 0.0 0.0
00:19 4.6 4.2 97 1010.8 7.6 SW 11.4 0.0 0.0
00:20 4.6 4.2 97 1010.7 9.2 S 10.7 0.0 0.0
00:22 4.6 4.2 97 1010.9 9.2 SW 10.7 0.0 0.0
00:23 4.5 4.1 97 1010.9 8.3 SW 10.7 0.0 0.0
00:24 4.5 4.1 97 1010.7 10.7 SW 11.4 0.0 0.0
00:25 4.5 4.1 97 1010.8 12.1 SW 12.1 0.0 0.0
00:27 4.5 4.2 98 1010.8 10.7 SW 12.1 0.0 0.0
00:28 4.5 4.2 98 1011.0 11.4 NW 12.1 0.0 0.0
00:29 4.5 4.2 98 1010.9 7.6 SW 12.1 0.0 0.0
00:30 4.5 4.2 98 1010.9 10.7 SW 12.1 0.0 0.0
00:31 4.5 4.2 98 1011.0 9.8 S 12.1 0.0 0.0
00:32 4.6 4.3 98 1010.9 10.7 SW 12.1 0.0 0.0
00:33 4.6 4.3 98 1010.8 9.2 SE 12.1 0.0 0.0
00:35 4.5 4.2 98 1010.7 8.3 SW 12.1 0.0 0.0
00:36 4.6 4.3 98 1010.8 12.1 S 12.1 0.0 0.0
00:38 4.6 4.3 98 1010.8 8.3 SW 12.1 0.0 0.0
00:39 4.6 4.3 98 1010.8 7.6 SW 12.1 0.0 0.0
00:40 4.6 4.3 98 1010.9 9.8 SW 12.1 0.0 0.0
00:42 4.6 4.3 98 1010.9 8.3 SW 12.1 0.0 0.0
00:43 4.6 4.5 99 1011.0 7.6 S 12.1 0.0 0.0
00:44 4.6 4.3 98 1011.0 6.9 W 12.1 0.0 0.0
00:45 4.7 4.6 99 1010.8 9.2 WNW 12.1 0.0 0.0
00:46 4.7 4.6 99 1010.7 9.8 SW 12.1 0.0 0.0
00:48 4.7 4.6 99 1010.7 11.4 SW 12.1 0.0 0.0
00:49 4.7 4.6 99 1010.9 9.8 SW 12.1 0.0 0.0
00:50 4.7 4.6 99 1010.9 8.3 NW 12.1 0.0 0.0
00:51 4.7 4.6 99 1011.0 11.4 SW 12.1 0.0 0.0
00:52 4.7 4.6 99 1010.8 11.4 SW 12.1 0.0 0.0
00:54 4.7 4.6 99 1010.9 11.4 SW 12.1 0.0 0.0
00:55 4.7 4.6 99 1010.9 11.4 SW 12.1 0.0 0.0
00:56 4.7 4.6 99 1010.8 7.6 S 11.4 0.0 0.0
00:57 4.7 4.6 99 1010.9 7.6 SW 11.4 0.0 0.0
00:58 4.7 4.6 99 1010.8 9.2 SW 11.4 0.0 0.0
01:00 4.7 4.6 99 1010.9 13.0 SW 13.0 0.0 0.0
01:01 4.7 4.6 99 1010.8 8.3 SW 13.0 0.0 0.0
01:02 4.7 4.6 99 1010.7 8.3 SW 13.0 0.0 0.0
01:03 4.7 4.6 99 1010.8 8.3 SW 13.0 0.0 0.0
01:04 4.7 4.6 99 1010.7 8.3 SW 13.0 0.0 0.0
01:05 4.7 4.6 99 1010.7 8.3 SW 13.0 0.0 0.0
01:07 4.6 4.5 99 1010.9 8.3 SW 13.0 0.0 0.0
01:08 4.6 4.5 99 1010.9 9.8 SW 13.0 0.0 0.0
01:09 4.5 4.4 99 1010.9 9.2 SW 13.0 0.0 0.0
01:10 4.6 4.5 99 1011.1 8.3 S 12.1 0.0 0.0
01:11 4.6 4.5 99 1010.8 11.4 SW 12.1 0.0 0.0
01:12 4.6 4.5 99 1011.0 13.6 W 13.6 0.0 0.0
01:13 4.6 4.5 99 1010.9 15.2 SW 15.2 0.0 0.0
01:14 4.5 4.4 99 1010.8 13.6 SW 15.2 0.0 0.0
01:16 4.6 4.5 99 1010.8 10.7 SW 15.2 0.0 0.0
01:17 4.6 4.3 98 1010.8 12.1 SW 15.2 0.0 0.0
01:18 4.6 4.3 98 1010.7 9.8 SW 15.2 0.0 0.0
01:19 4.6 4.3 98 1010.7 9.8 SW 15.2 0.0 0.0
01:20 4.6 4.3 98 1010.9 9.8 SW 15.2 0.0 0.0
01:22 4.6 4.3 98 1010.9 11.4 SW 15.2 0.0 0.0
01:23 4.6 4.3 98 1011.0 8.3 SW 15.2 0.0 0.0
01:24 4.6 4.3 98 1010.8 9.2 SW 14.5 0.0 0.0
01:26 4.6 4.3 98 1010.9 9.2 SW 14.5 0.0 0.0
01:27 4.6 4.3 98 1010.9 13.0 SW 14.5 0.0 0.0
01:28 4.6 4.3 98 1011.0 13.0 SW 13.0 0.0 0.0
01:29 4.6 4.3 98 1010.9 9.8 SW 13.0 0.0 0.0
01:31 4.7 4.4 98 1010.9 10.7 W 13.0 0.0 0.0
01:32 4.7 4.4 98 1010.8 9.8 W 13.0 0.0 0.0
01:34 4.7 4.4 98 1011.0 10.7 SW 13.0 0.0 0.0
01:35 4.7 4.4 98 1010.8 12.1 SW 13.0 0.0 0.0
01:37 4.6 4.3 98 1010.9 9.8 SW 13.0 0.0 0.0
01:38 4.8 4.5 98 1010.7 10.7 S 13.0 0.0 0.0
01:39 4.8 4.5 98 1010.7 11.4 SW 12.1 0.0 0.0
01:41 4.8 4.5 98 1010.5 16.8 SW 16.8 0.0 0.0
01:42 4.9 4.6 98 1010.7 12.1 SW 16.8 0.0 0.0
01:44 4.9 4.6 98 1010.7 15.9 W 16.8 0.0 0.0
01:45 4.9 4.6 98 1010.6 13.0 SW 16.8 0.0 0.0
01:46 4.9 4.6 98 1010.6 12.1 SW 16.8 0.0 0.0
01:48 4.9 4.6 98 1010.6 15.2 S 16.8 0.0 0.0
01:49 4.9 4.6 98 1010.7 12.1 SW 16.8 0.0 0.0
01:50 4.9 4.6 98 1010.7 13.6 SW 16.8 0.0 0.0
01:51 5.0 4.7 98 1010.7 13.6 SW 15.9 0.0 0.0
01:52 4.9 4.6 98 1010.7 15.9 SW 15.9 0.0 0.0
01:53 4.9 4.6 98 1010.7 18.3 SW 18.3 0.0 0.0
01:54 5.0 4.7 98 1010.8 16.8 SW 18.3 0.0 0.0
01:55 5.0 4.7 98 1010.7 10.7 SW 18.3 0.0 0.0
01:57 5.0 4.7 98 1010.6 15.9 SW 18.3 0.0 0.0
01:58 5.0 4.7 98 1010.7 14.5 W 18.3 0.0 0.0
01:59 5.0 4.7 98 1010.6 13.0 SW 18.3 0.0 0.0
02:00 5.0 4.7 98 1010.8 15.9 S 18.3 0.0 0.0
02:01 5.0 4.7 98 1010.7 18.3 W 18.3 0.0 0.0
02:02 5.0 4.7 98 1010.8 15.9 SW 18.3 0.0 0.0
02:03 5.0 4.6 97 1010.5 22.1 SW 22.1 0.0 0.0
02:06 5.1 4.7 97 1010.7 14.5 SW 22.1 0.0 0.0
02:07 5.1 4.7 97 1010.8 15.9 SW 22.1 0.0 0.0
02:09 5.1 4.7 97 1010.9 13.0 SW 22.1 0.0 0.0
02:10 5.1 4.7 97 1011.1 15.9 SW 22.1 0.0 0.0
02:11 5.1 4.7 97 1010.9 15.9 W 22.1 0.0 0.0
02:12 5.1 4.7 97 1010.9 13.6 W 22.1 0.0 0.0
02:13 5.2 4.8 97 1011.0 13.0 NW 22.1 0.0 0.0
02:14 5.2 4.8 97 1011.2 12.1 W 22.1 0.0 0.0
02:15 5.2 4.8 97 1011.2 21.3 SW 21.3 0.0 0.0
02:17 5.2 4.8 97 1011.2 15.2 W 21.3 0.0 0.0
02:18 5.2 4.8 97 1011.1 15.9 W 21.3 0.0 0.0
02:19 5.2 4.8 97 1011.1 14.5 SW 21.3 0.0 0.0
02:20 5.1 4.7 97 1011.2 9.8 NW 21.3 0.0 0.0
02:21 5.1 4.7 97 1011.2 12.1 SW 21.3 0.0 0.0
02:22 5.1 4.7 97 1011.3 15.9 SW 21.3 0.0 0.0
02:23 5.1 4.7 97 1011.2 15.2 W 21.3 0.0 0.0
02:24 5.1 4.7 97 1011.2 13.0 NW 21.3 0.0 0.0
02:25 5.0 4.7 98 1011.2 15.9 SW 21.3 0.0 0.0
02:26 5.0 4.7 98 1011.2 9.2 W 15.9 0.8 0.1
02:27 5.0 4.7 98 1011.2 15.9 W 15.9 0.8 0.1
02:28 5.0 4.7 98 1011.3 8.3 W 15.9 0.8 0.1
02:29 5.0 4.7 98 1011.2 9.8 W 15.9 0.8 0.1
02:30 4.9 4.6 98 1011.2 9.8 W 15.9 0.8 0.1
02:31 4.9 4.6 98 1011.2 8.3 W 15.9 0.0 0.1
02:32 4.9 4.6 98 1011.1 9.8 W 15.9 0.0 0.1
02:33 4.9 4.6 98 1011.1 9.2 W 15.9 0.0 0.1
02:34 4.9 4.6 98 1011.1 13.0 N 15.9 0.0 0.1
02:35 4.8 4.5 98 1011.2 11.4 W 15.9 0.0 0.1
02:37 4.8 4.5 98 1011.2 12.1 W 15.9 0.0 0.1
02:38 4.8 4.5 98 1011.2 9.8 W 13.0 0.0 0.1
02:39 4.8 4.5 98 1011.2 9.2 SW 13.0 0.0 0.1
02:41 4.8 4.7 99 1011.0 10.7 W 13.0 0.0 0.1
02:42 4.8 4.7 99 1011.2 13.0 W 13.0 0.0 0.1
02:43 4.8 4.7 99 1011.2 8.3 W 13.0 0.0 0.1
02:44 4.7 4.6 99 1011.2 7.6 W 13.0 0.0 0.1
02:45 4.7 4.6 99 1011.2 9.8 WNW 13.0 0.0 0.1
02:46 4.7 4.6 99 1011.2 6.9 W 13.0 0.0 0.1
02:47 4.6 4.5 99 1011.2 11.4 NW 13.0 0.0 0.1
02:48 4.7 4.6 99 1011.2 9.2 SW 13.0 0.0 0.1
02:49 4.7 4.6 99 1011.2 9.8 W 13.0 0.0 0.1
02:50 4.7 4.6 99 1011.2 8.3 W 13.0 0.0 0.1
02:51 4.7 4.6 99 1011.3 9.2 N 13.0 0.0 0.1
02:52 4.7 4.6 99 1011.3 11.4 SW 11.4 0.0 0.1
02:53 4.7 4.6 99 1011.4 11.4 W 11.4 0.0 0.1
02:55 4.7 4.6 99 1011.2 14.5 SW 14.5 0.8 0.1
02:56 4.7 4.6 99 1011.3 10.7 W 14.5 0.8 0.1
02:57 4.7 4.6 99 1011.3 9.2 W 14.5 1.5 0.2
02:58 4.7 4.6 99 1011.2 9.2 W 14.5 1.5 0.2
02:59 4.7 4.6 99 1011.3 9.2 SW 14.5 0.8 0.2
03:00 4.7 4.6 99 1011.4 7.6 SW 14.5 0.8 0.2
03:01 4.7 4.6 99 1011.4 9.8 W 14.5 0.8 0.2
03:02 4.7 4.6 99 1011.4 9.8 W 14.5 0.0 0.2
03:03 4.7 4.6 99 1011.3 9.8 W 14.5 0.0 0.2
03:04 4.7 4.6 99 1011.3 9.8 W 14.5 0.0 0.2
03:05 4.7 4.6 99 1011.5 9.8 W 10.7 0.0 0.2
03:06 4.7 4.6 99 1011.5 9.8 W 9.8 0.0 0.2
03:07 4.7 4.6 99 1011.4 12.1 W 12.1 0.0 0.2
03:08 4.6 4.5 99 1011.3 8.3 W 12.1 0.0 0.2
03:09 4.6 4.5 99 1011.4 12.1 W 12.1 0.0 0.2
03:11 4.6 4.5 99 1011.4 9.8 NW 13.6 0.0 0.2
03:12 4.6 4.5 99 1011.5 8.3 N 13.6 0.0 0.2
03:13 4.6 4.5 99 1011.4 14.5 SW 14.5 0.0 0.2
03:14 4.6 4.5 99 1011.4 12.1 N 14.5 0.0 0.2
03:15 4.6 4.5 99 1011.4 12.1 N 14.5 0.0 0.2
03:16 4.6 4.5 99 1011.3 10.7 W 14.5 0.0 0.2
03:17 4.6 4.5 99 1011.4 11.4 W 14.5 0.0 0.2
03:18 4.6 4.5 99 1011.3 10.7 N 14.5 0.0 0.2
03:19 4.6 4.5 99 1011.3 11.4 N 14.5 0.0 0.2
03:20 4.6 4.5 99 1011.3 12.1 N 14.5 0.0 0.2
03:21 4.4 4.3 99 1011.3 10.7 SW 14.5 0.0 0.2
03:22 4.5 4.4 99 1011.4 11.4 W 14.5 0.0 0.2
03:23 4.6 4.5 99 1011.3 10.7 W 12.1 0.0 0.2
03:24 4.5 4.4 99 1011.1 6.0 W 12.1 0.0 0.2
03:26 4.5 4.4 99 1011.2 9.8 W 12.1 0.0 0.2
03:27 4.5 4.4 99 1011.2 13.0 W 13.0 0.0 0.2
03:28 4.5 4.4 99 1011.3 11.4 W 13.0 0.0 0.2
03:29 4.5 4.4 99 1011.3 11.4 SW 13.0 0.0 0.2
03:30 4.5 4.4 99 1011.2 11.4 SW 13.0 0.0 0.2
03:31 4.5 4.4 99 1011.2 12.1 W 13.0 0.0 0.2
03:32 4.5 4.4 99 1011.2 9.2 W 13.0 0.0 0.2
03:33 4.5 4.4 99 1011.4 13.6 SW 13.6 0.0 0.2
03:34 4.5 4.4 99 1011.4 6.9 W 13.6 0.0 0.2
03:35 4.5 4.4 99 1011.3 12.1 SW 13.6 0.0 0.2
03:36 4.5 4.4 99 1011.3 11.4 W 13.6 0.0 0.2
03:37 4.5 4.4 99 1011.3 9.8 W 13.6 0.0 0.2
03:38 4.4 4.3 99 1011.4 8.3 W 13.6 0.0 0.2
03:40 4.5 4.4 99 1011.4 9.8 W 13.6 0.0 0.2
03:41 4.6 4.5 99 1011.4 7.6 SW 13.6 0.0 0.2
03:42 4.6 4.5 99 1011.4 9.8 W 13.6 0.0 0.2
03:43 4.6 4.5 99 1011.4 6.0 W 13.6 0.0 0.2
03:44 4.6 4.5 99 1011.5 9.2 SW 13.6 0.0 0.2
03:45 4.6 4.5 99 1011.4 9.2 W 13.6 0.0 0.2
03:46 4.6 4.5 99 1011.5 9.8 W 13.6 0.0 0.2
03:47 4.7 4.6 99 1011.5 11.4 W 13.6 0.0 0.2
03:48 4.7 4.6 99 1011.3 11.4 SW 13.6 0.0 0.2
03:49 4.7 4.6 99 1011.5 9.2 W 13.6 0.0 0.2
03:50 4.6 4.5 99 1011.5 11.4 SW 13.6 0.0 0.2
03:51 4.6 4.5 99 1011.3 9.2 W 13.6 0.0 0.2
03:52 4.6 4.5 99 1011.4 9.8 SW 11.4 0.0 0.2
03:53 4.6 4.5 99 1011.3 9.8 SW 11.4 0.0 0.2
03:54 4.6 4.5 99 1011.3 10.7 SW 11.4 0.0 0.2
03:55 4.5 4.4 99 1011.3 9.8 SW 11.4 0.0 0.2
03:56 4.4 4.3 99 1011.3 9.8 W 11.4 0.0 0.2
03:57 4.4 4.3 99 1011.4 9.8 W 11.4 0.0 0.2
03:58 4.4 4.3 99 1011.3 11.4 SW 11.4 0.0 0.2
04:00 4.3 4.0 98 1011.4 11.4 W 11.4 0.0 0.2
04:01 4.3 4.0 98 1011.3 10.7 NW 11.4 0.0 0.2
04:02 4.3 4.0 98 1011.3 10.7 NW 11.4 0.0 0.2
04:03 4.3 4.0 98 1011.3 10.7 NW 11.4 0.0 0.2
04:04 4.3 4.0 98 1011.4 10.7 NW 11.4 0.0 0.2
04:05 4.3 4.0 98 1011.4 10.7 NW 11.4 0.0 0.2
04:06 4.1 3.8 98 1011.4 9.8 W 11.4 0.0 0.2
04:07 4.1 3.8 98 1011.4 10.7 WNW 11.4 0.0 0.2
04:08 4.1 3.8 98 1011.3 8.3 W 11.4 0.0 0.2
04:10 4.0 3.7 98 1011.4 9.8 SW 11.4 0.0 0.2
04:11 4.1 3.8 98 1011.3 13.6 SW 13.6 0.0 0.2
04:12 4.0 3.7 98 1011.4 8.3 SW 13.6 0.0 0.2
04:13 4.0 3.7 98 1011.6 8.3 SW 13.6 0.0 0.2
04:14 4.0 3.7 98 1011.5 9.2 W 13.6 0.0 0.2
04:15 4.0 3.7 98 1011.5 8.3 SW 13.6 0.0 0.2
04:16 4.0 3.7 98 1011.5 9.8 W 13.6 0.0 0.2
04:17 4.0 3.7 98 1011.4 9.8 SW 13.6 0.0 0.2
04:18 4.0 3.7 98 1011.5 6.9 SW 13.6 0.0 0.2
04:19 4.0 3.7 98 1011.6 6.9 SW 13.6 0.0 0.2
04:20 4.1 3.8 98 1011.6 7.6 W 13.6 0.0 0.2
04:21 4.0 3.7 98 1011.6 9.8 W 9.8 0.0 0.2
04:22 4.0 3.7 98 1011.4 7.6 SW 9.8 0.0 0.2
04:24 4.0 3.7 98 1011.4 7.6 SW 9.8 0.8 0.3
04:25 4.1 3.8 98 1011.4 11.4 W 11.4 0.8 0.3
04:26 4.1 4.0 99 1011.4 8.3 SW 11.4 0.8 0.3
04:27 4.1 3.8 98 1011.6 8.3 W 11.4 0.8 0.3
04:28 4.1 4.0 99 1011.5 8.3 W 11.4 0.0 0.3
04:29 4.1 3.8 98 1011.5 8.3 W 11.4 0.0 0.3
04:30 4.1 3.8 98 1011.6 7.6 W 11.4 0.8 0.3
04:31 4.1 4.0 99 1011.5 6.9 SW 11.4 0.8 0.3
04:32 4.1 4.0 99 1011.5 6.9 SW 11.4 0.8 0.3
04:33 4.1 4.0 99 1011.5 6.0 SW 11.4 0.8 0.3
04:34 4.0 3.9 99 1011.6 5.4 SW 11.4 0.8 0.3
04:35 4.0 3.7 98 1011.4 8.3 W 10.7 0.0 0.3
04:36 4.0 3.9 99 1011.5 8.3 W 8.3 0.0 0.3
04:37 4.0 3.9 99 1011.4 7.6 NW 8.3 0.0 0.3
04:38 4.0 3.7 98 1011.5 6.9 NW 8.3 0.0 0.3
04:39 3.8 3.5 98 1011.6 7.6 W 8.3 0.0 0.3
04:40 3.9 3.8 99 1011.5 9.2 W 9.2 0.0 0.3
04:41 3.9 3.8 99 1011.7 8.3 W 9.2 0.0 0.3
04:42 3.8 3.7 99 1011.6 7.6 W 9.2 0.0 0.3
04:44 3.9 3.8 99 1011.6 10.7 SW 10.7 0.0 0.3
04:45 3.9 3.8 99 1011.6 7.6 W 10.7 0.0 0.3
04:46 3.8 3.7 99 1011.4 6.0 W 10.7 0.0 0.3
04:47 3.9 3.8 99 1011.5 7.6 W 10.7 0.0 0.3
04:48 3.9 3.8 99 1011.4 11.4 SW 11.4 0.0 0.3
04:49 3.8 3.7 99 1011.4 13.0 SW 13.0 0.0 0.3
04:50 3.9 3.8 99 1011.4 9.8 N 13.0 0.0 0.3
04:51 3.9 3.8 99 1011.4 7.6 NW 13.0 0.0 0.3
04:52 3.9 3.8 99 1011.6 9.8 NW 13.0 0.0 0.3
04:53 4.0 3.9 99 1011.5 11.4 N 13.0 0.8 0.4
04:54 4.0 3.9 99 1011.5 6.9 W 13.0 0.8 0.4
04:55 4.0 3.7 98 1011.5 12.1 W 13.0 0.8 0.4
04:56 4.0 3.7 98 1011.5 13.6 W 13.6 0.8 0.4
04:57 4.0 3.7 98 1011.5 11.4 W 13.6 0.8 0.4
04:58 4.1 3.8 98 1011.6 8.3 W 13.6 0.0 0.4
04:59 4.1 3.8 98 1011.6 10.7 W 13.6 0.0 0.4
05:00 4.2 3.9 98 1011.5 8.3 W 13.6 0.0 0.4
05:01 4.2 3.9 98 1011.5 8.3 W 13.6 0.0 0.4
05:03 4.2 3.9 98 1011.6 8.3 W 13.6 0.0 0.4
05:04 4.2 3.9 98 1011.5 8.3 W 13.6 0.0 0.4
05:05 4.2 3.9 98 1011.6 8.3 W 13.6 0.0 0.4
05:06 4.3 4.0 98 1011.7 7.6 W 13.6 0.0 0.4
05:07 4.3 4.0 98 1011.7 7.6 W 11.4 0.0 0.4
05:08 4.3 4.0 98 1011.6 7.6 W 10.7 0.0 0.4
05:09 4.4 4.1 98 1011.7 9.2 W 10.7 0.0 0.4
05:10 4.3 4.0 98 1011.7 11.4 W 11.4 0.0 0.4
05:11 4.4 4.1 98 1011.7 13.0 W 13.0 0.0 0.4
05:12 4.4 4.1 98 1011.7 10.7 NW 13.0 0.0 0.4
05:13 4.4 4.1 98 1011.7 10.7 WNW 13.0 0.0 0.4
05:14 4.4 4.1 98 1011.7 6.0 W 13.0 0.0 0.4
05:15 4.5 4.2 98 1011.8 10.7 W 13.0 0.0 0.4
05:16 4.4 4.1 98 1011.8 6.9 W 13.0 0.0 0.4
05:17 4.5 4.2 98 1011.7 10.7 W 13.0 0.0 0.4
05:19 4.5 4.2 98 1011.7 9.2 W 13.0 0.0 0.4
05:20 4.5 4.1 97 1011.7 8.3 SW 13.0 0.0 0.4
05:21 4.5 4.1 97 1011.6 9.8 W 13.0 0.0 0.4
05:22 4.5 4.1 97 1011.5 7.6 W 10.7 0.0 0.4
05:23 4.5 4.1 97 1011.8 7.6 SW 10.7 0.0 0.4
05:24 4.5 4.1 97 1011.5 6.9 SW 10.7 0.0 0.4
05:25 4.5 4.1 97 1011.6 7.6 WNW 10.7 0.0 0.4
05:26 4.5 4.1 97 1011.8 9.8 W 10.7 0.0 0.4
05:27 4.5 4.1 97 1011.8 6.0 W 10.7 0.0 0.4
05:28 4.5 4.1 97 1011.8 9.2 W 9.8 0.0 0.4
05:29 4.5 4.1 97 1011.8 8.3 W 9.8 0.0 0.4
05:30 4.5 4.1 97 1011.8 8.3 SW 9.8 0.0 0.4
05:31 4.5 4.1 97 1011.8 6.9 SW 9.8 0.0 0.4
05:32 4.5 4.1 97 1011.9 10.7 SW 10.7 0.0 0.4
05:33 4.6 4.2 97 1011.8 9.2 W 10.7 0.0 0.4
05:34 4.6 4.2 97 1011.8 6.0 W 10.7 0.8 0.4
05:35 4.6 4.2 97 1011.9 9.8 W 10.7 0.8 0.4
05:36 4.6 4.2 97 1011.9 9.8 W 10.7 0.8 0.4
05:37 4.6 4.0 96 1012.0 10.7 W 10.7 0.8 0.4
05:38 4.6 4.2 97 1012.0 9.2 SW 10.7 0.8 0.4
05:40 4.7 4.3 97 1011.8 9.8 SW 10.7 0.0 0.4
05:41 4.7 4.3 97 1011.9 9.8 SW 10.7 0.0 0.4
05:42 4.7 4.3 97 1012.0 7.6 SW 10.7 0.0 0.4
05:43 4.7 4.3 97 1011.8 9.2 W 10.7 0.0 0.4
05:44 4.7 4.3 97 1012.0 8.3 W 10.7 0.0 0.4
05:45 4.8 4.4 97 1012.2 6.0 SW 10.7 0.0 0.4
05:46 4.8 4.4 97 1012.0 7.6 W 10.7 0.0 0.4
05:47 4.8 4.4 97 1012.0 9.2 W 10.7 0.0 0.4
05:48 4.8 4.2 96 1012.1 11.4 W 11.4 0.0 0.4
05:49 4.8 4.2 96 1012.1 9.2 W 11.4 0.0 0.4
05:50 4.8 4.2 96 1012.1 9.8 W 11.4 0.0 0.4
05:51 4.8 4.2 96 1011.9 10.7 W 12.1 0.0 0.4
05:52 4.8 4.2 96 1012.1 9.8 SW 12.1 0.0 0.4
05:53 4.7 4.1 96 1012.1 9.2 W 12.1 0.0 0.4
05:54 4.6 4.0 96 1012.2 7.6 W 12.1 0.0 0.4
05:55 4.7 4.1 96 1012.1 8.3 SW 12.1 0.0 0.4
05:56 4.7 4.1 96 1012.0 10.7 W 12.1 0.0 0.4
05:57 4.7 4.1 96 1012.2 6.9 W 12.1 0.0 0.4
05:58 4.7 4.1 96 1012.2 10.7 W 12.1 0.0 0.4
06:00 4.7 4.1 96 1012.2 7.6 W 12.1 0.0 0.4
06:01 4.7 4.1 96 1012.1 7.6 W 12.1 0.0 0.4
06:02 4.7 4.1 96 1012.1 7.6 W 10.7 0.0 0.4
06:03 4.7 4.1 96 1012.1 7.6 W 10.7 0.0 0.4
06:04 4.7 4.1 96 1012.1 7.6 W 10.7 0.0 0.4
06:05 4.7 4.1 96 1012.1 7.6 W 10.7 0.0 0.4
06:06 4.7 4.1 96 1012.1 9.2 W 10.7 0.0 0.4
06:07 4.7 4.1 96 1012.1 6.9 NW 10.7 0.0 0.4
06:08 4.7 4.1 96 1012.1 6.9 W 9.2 0.0 0.4
06:10 4.7 4.1 96 1012.2 8.3 W 9.2 0.0 0.4
06:12 4.7 4.1 96 1012.2 8.3 W 11.4 0.0 0.4
06:13 4.7 4.1 96 1012.1 8.3 W 11.4 0.0 0.4
06:14 4.7 4.0 95 1012.2 7.6 W 11.4 0.0 0.4
06:15 4.6 4.0 96 1012.0 6.9 W 11.4 0.0 0.4
06:16 4.6 3.9 95 1012.0 6.9 NW 11.4 0.0 0.4
06:17 4.6 3.9 95 1012.0 6.9 NW 11.4 0.0 0.4
06:18 4.6 3.9 95 1012.1 9.2 W 11.4 0.0 0.4
06:19 4.6 3.9 95 1012.1 9.2 W 11.4 0.0 0.4
06:20 4.6 3.9 95 1012.0 8.3 W 11.4 0.0 0.4
06:21 4.6 3.9 95 1012.2 6.0 SW 9.2 0.0 0.4
06:22 4.6 3.9 95 1012.1 9.2 W 9.2 0.0 0.4
06:23 4.6 3.9 95 1012.1 9.2 SW 9.2 0.0 0.4
06:24 4.6 3.9 95 1012.0 7.6 W 9.2 0.0 0.4
06:25 4.6 3.9 95 1012.1 5.4 W 9.2 0.0 0.4
06:26 4.6 3.9 95 1012.2 6.0 W 9.2 0.0 0.4
06:27 4.6 3.9 95 1012.1 5.4 NW 9.2 0.0 0.4
06:29 4.6 3.9 95 1012.1 4.5 W 9.2 0.0 0.4
06:30 4.6 3.9 95 1012.1 6.0 W 9.2 0.0 0.4
06:31 4.6 4.0 96 1012.1 7.6 SW 9.2 0.0 0.4
06:32 4.6 3.9 95 1012.1 6.0 SW 9.2 0.0 0.4
06:33 4.6 4.0 96 1012.1 7.6 W 9.2 0.0 0.4
06:34 4.6 4.0 96 1012.1 7.6 W 9.2 0.0 0.4
06:35 4.6 3.9 95 1011.9 8.3 W 9.2 0.0 0.4
06:36 4.6 4.0 96 1012.2 9.2 SW 9.2 0.0 0.4
06:37 4.6 4.0 96 1012.1 6.9 SW 9.2 0.0 0.4
06:38 4.6 4.0 96 1012.2 8.3 SW 9.2 0.0 0.4
06:39 4.7 4.1 96 1012.0 6.0 SW 9.2 0.0 0.4
06:40 4.7 4.1 96 1012.1 6.0 W 9.2 0.0 0.4
06:41 4.7 4.1 96 1012.1 6.9 W 9.2 0.0 0.4
06:42 4.7 4.1 96 1012.2 6.9 SW 9.2 0.0 0.4
06:43 4.7 4.1 96 1012.2 8.3 SW 9.2 0.0 0.4
06:45 4.7 4.1 96 1012.2 6.9 SW 9.8 0.0 0.4
06:46 4.7 4.1 96 1012.2 6.9 SW 9.8 0.0 0.4
06:47 4.7 4.1 96 1012.3 6.0 SW 9.8 0.0 0.4
06:48 4.7 4.1 96 1012.2 6.0 W 9.8 0.0 0.4
06:49 4.8 4.2 96 1012.1 6.0 SW 9.8 0.0 0.5
06:50 4.8 4.2 96 1012.1 5.4 N 9.8 0.8 0.5
06:51 4.8 4.2 96 1012.2 5.4 W 9.8 0.8 0.5
06:52 4.8 4.2 96 1012.3 5.4 N 9.8 0.8 0.5
06:53 4.8 4.2 96 1012.2 4.5 W 9.8 0.8 0.5
06:54 4.8 4.2 96 1012.2 5.4 W 9.8 0.8 0.5
06:55 4.8 4.2 96 1012.3 4.5 W 6.9 0.0 0.5
06:56 4.8 4.2 96 1012.4 6.9 W 6.9 0.0 0.5
06:57 4.8 4.2 96 1012.3 6.0 N 6.9 0.0 0.5
06:58 4.8 4.2 96 1012.2 6.9 SW 6.9 0.0 0.5
07:00 4.8 4.2 96 1012.3 8.3 W 8.3 0.0 0.5
07:01 4.8 4.2 96 1012.5 9.2 W 9.2 0.0 0.5
07:02 4.8 4.2 96 1012.3 9.2 W 9.2 0.0 0.5
07:03 4.8 4.2 96 1012.3 9.2 W 9.2 0.0 0.5
07:04 4.8 4.2 96 1012.4 9.2 W 9.2 0.0 0.5
07:05 4.8 4.2 96 1012.4 9.2 W 9.2 0.0 0.5
07:06 4.8 4.2 96 1012.5 12.1 W 12.1 0.0 0.5
07:07 4.8 4.2 96 1012.4 10.7 W 12.1 0.0 0.5
07:08 4.6 4.0 96 1012.6 9.2 W 12.1 0.0 0.5
07:09 4.8 4.2 96 1012.4 9.2 W 12.1 0.0 0.5
07:10 4.8 4.2 96 1012.4 9.2 W 12.1 0.0 0.5
07:11 4.8 4.2 96 1012.7 10.7 SW 12.1 0.0 0.5
07:12 4.8 4.2 96 1012.5 8.3 W 12.1 0.0 0.5
07:13 4.8 4.2 96 1012.5 9.8 W 12.1 0.0 0.5
07:14 4.7 4.1 96 1012.5 6.9 SW 12.1 0.0 0.5
07:16 4.7 4.1 96 1012.7 7.6 W 12.1 0.0 0.5
07:17 4.7 4.1 96 1012.6 9.8 SW 10.7 0.0 0.5
07:18 4.7 4.1 96 1012.5 9.2 SW 10.7 0.0 0.5
07:19 4.7 4.1 96 1012.6 7.6 SW 10.7 0.0 0.5
07:20 4.7 4.1 96 1012.6 9.8 W 10.7 0.0 0.5
07:21 4.6 4.0 96 1012.4 9.2 SW 10.7 0.0 0.5
07:22 4.6 4.0 96 1012.5 7.6 SW 9.8 0.0 0.5
07:23 4.6 4.0 96 1012.5 9.2 SW 9.8 0.0 0.5
07:24 4.6 4.0 96 1012.5 8.3 SW 9.8 0.0 0.5
07:25 4.6 4.0 96 1012.7 8.3 W 9.8 0.0 0.5
07:26 4.6 3.9 95 1012.6 8.3 W 9.8 0.0 0.5
07:27 4.5 3.9 96 1012.5 9.2 SW 9.8 0.0 0.5
07:28 4.4 3.8 96 1012.5 9.8 W 9.8 0.0 0.5
07:29 4.5 3.9 96 1012.6 7.6 W 9.8 0.0 0.5
07:30 4.5 3.9 96 1012.6 7.6 W 9.8 0.0 0.5
07:31 4.5 3.8 95 1012.3 7.6 W 9.8 0.0 0.5
07:32 4.5 3.9 96 1012.4 10.7 SW 10.7 0.0 0.5
07:33 4.5 3.8 95 1012.4 11.4 SW 11.4 0.0 0.5
07:34 4.4 3.8 96 1012.3 9.2 SW 11.4 0.0 0.5
07:35 4.3 3.7 96 1012.6 10.7 W 11.4 0.0 0.5
07:36 4.4 3.7 95 1012.4 7.6 W 11.4 0.0 0.5
07:37 4.4 3.8 96 1012.4 9.8 SW 11.4 0.0 0.5
07:38 4.5 3.9 96 1012.4 6.9 SW 11.4 0.0 0.5
07:39 4.4 3.7 95 1012.4 9.2 W 11.4 0.0 0.5
07:40 4.4 3.8 96 1012.5 8.3 SW 11.4 0.0 0.5
07:41 4.4 3.7 95 1012.5 12.1 W 12.1 0.0 0.5
07:42 4.4 3.7 95 1012.6 9.8 SW 12.1 0.0 0.5
07:43 4.5 3.8 95 1012.5 8.3 SW 12.1 0.0 0.5
07:44 4.5 3.9 96 1012.7 8.3 SW 12.1 0.0 0.5
07:45 4.5 3.8 95 1012.5 8.3 W 12.1 0.0 0.5
07:46 4.5 3.8 95 1012.5 9.2 W 12.1 0.0 0.5
07:47 4.5 3.8 95 1012.5 8.3 SW 12.1 0.0 0.5
07:48 4.5 3.8 95 1012.5 10.7 W 12.1 0.0 0.5
07:49 4.5 3.8 95 1012.7 7.6 W 12.1 0.0 0.5
07:50 4.5 3.8 95 1012.6 6.9 W 12.1 0.0 0.5
07:51 4.5 3.8 95 1012.6 8.3 SW 10.7 0.0 0.5
07:53 4.4 3.7 95 1012.7 8.3 SW 10.7 0.0 0.5
07:54 4.6 3.9 95 1012.6 9.8 SW 10.7 0.0 0.5
07:55 4.5 3.8 95 1012.7 9.8 WNW 10.7 0.0 0.5
07:56 4.5 3.8 95 1012.7 9.2 WNW 10.7 0.0 0.5
07:57 4.6 3.9 95 1012.7 7.6 W 10.7 0.0 0.5
07:58 4.6 3.9 95 1012.7 9.2 W 10.7 0.0 0.5
07:59 4.5 3.8 95 1012.7 9.8 W 9.8 0.0 0.5
08:00 4.5 3.8 95 1012.7 9.2 W 9.8 0.0 0.5
08:01 4.5 3.8 95 1012.8 7.6 N 9.8 0.0 0.5
08:02 4.5 3.8 95 1012.8 7.6 N 9.8 0.0 0.5
08:03 4.5 3.8 95 1012.7 7.6 N 9.8 0.0 0.5
08:04 4.5 3.8 95 1012.7 7.6 N 9.8 0.0 0.5
08:05 4.5 3.8 95 1012.7 7.6 N 9.8 0.0 0.5
08:06 4.5 3.6 94 1012.7 7.6 W 9.8 0.0 0.5
08:07 4.5 3.6 94 1012.7 6.9 W 9.8 0.0 0.5
08:08 4.5 3.6 94 1012.8 6.9 NW 9.8 0.0 0.5
08:09 4.5 3.6 94 1012.7 6.9 SW 7.6 0.0 0.5
08:11 4.5 3.6 94 1012.6 9.2 SW 9.2 0.0 0.5
08:12 4.5 3.6 94 1012.8 7.6 SW 9.2 0.0 0.5
08:14 4.5 3.6 94 1012.8 9.2 W 9.2 0.0 0.5
08:15 4.5 3.6 94 1012.7 7.6 W 9.2 0.0 0.5
08:16 4.5 3.6 94 1012.7 9.8 W 9.8 0.0 0.5
08:17 4.5 3.6 94 1012.6 9.2 W 11.4 0.0 0.5
08:18 4.5 3.6 94 1012.7 10.7 SW 11.4 0.0 0.5
08:19 4.4 3.5 94 1012.8 9.8 W 11.4 0.0 0.5
08:20 4.5 3.6 94 1012.8 8.3 SW 11.4 0.0 0.5
08:21 4.4 3.5 94 1012.7 9.2 SW 11.4 0.0 0.5
08:22 4.4 3.5 94 1012.7 8.3 SW 11.4 0.0 0.5
08:23 4.4 3.5 94 1012.7 6.9 SW 11.4 0.0 0.5
08:24 4.4 3.5 94 1012.7 7.6 SW 11.4 0.0 0.5
08:25 4.4 3.5 94 1012.7 9.8 W 11.4 0.0 0.5
08:26 4.4 3.5 94 1012.8 6.9 SW 11.4 0.0 0.5
08:27 4.4 3.5 94 1012.9 9.2 SW 10.7 0.0 0.5
08:28 4.4 3.5 94 1012.8 9.2 SW 9.8 0.0 0.5
08:29 4.5 3.6 94 1012.9 8.3 W 9.8 0.0 0.5
08:30 4.4 3.5 94 1012.8 8.3 SW 9.8 0.0 0.5
08:31 4.5 3.6 94 1012.8 6.9 SW 9.8 0.0 0.5
08:32 4.5 3.6 94 1012.7 6.0 SW 9.8 0.0 0.5
08:33 4.5 3.6 94 1013.0 6.0 W 9.8 0.0 0.5
08:34 4.5 3.6 94 1012.8 5.4 SW 9.8 0.0 0.5
08:35 4.5 3.6 94 1012.9 6.0 SW 9.2 0.0 0.5
08:36 4.5 3.6 94 1013.0 6.0 W 9.2 0.0 0.5
08:37 4.5 3.6 94 1012.8 7.6 SW 9.2 0.0 0.5
08:38 4.5 3.6 94 1012.9 7.6 W 9.2 0.0 0.5
08:39 4.5 3.6 94 1013.0 6.0 SW 8.3 0.0 0.5
08:40 4.6 3.7 94 1013.0 6.9 SW 8.3 0.0 0.5
08:41 4.6 3.7 94 1013.0 6.0 NNW 8.3 0.0 0.5
08:42 4.6 3.7 94 1012.9 4.5 W 8.3 0.0 0.5
08:43 4.6 3.7 94 1013.0 3.8 W 8.3 0.0 0.5
08:44 4.7 3.8 94 1013.1 3.8 W 8.3 0.0 0.5
08:45 4.7 3.8 94 1013.2 4.5 W 8.3 0.0 0.5
08:46 4.7 3.8 94 1013.1 4.5 SW 8.3 0.0 0.5
08:48 4.7 3.8 94 1013.2 4.5 W 8.3 0.0 0.5
08:49 4.8 4.1 95 1013.1 8.3 SW 8.3 0.0 0.5
08:50 4.8 3.9 94 1013.1 6.9 W 8.3 0.0 0.5
08:51 4.8 4.1 95 1013.2 4.5 W 8.3 0.0 0.5
08:53 4.8 4.1 95 1013.2 5.4 SW 8.3 0.0 0.5
08:54 4.9 4.2 95 1013.2 5.4 SW 8.3 0.0 0.5
08:55 4.9 4.2 95 1013.3 5.4 W 8.3 0.0 0.5
08:57 4.9 4.2 95 1013.2 4.5 W 8.3 0.0 0.5
08:58 4.9 4.2 95 1013.2 5.4 SW 8.3 0.0 0.5
08:59 4.9 4.2 95 1013.2 6.0 SW 8.3 0.0 0.5
09:00 4.9 4.2 95 1013.2 4.5 N 6.9 0.0 0.5
09:01 4.9 4.2 95 1013.2 4.5 SW 6.9 0.0 0.5
09:02 5.0 4.3 95 1013.2 6.0 SW 6.9 0.0 0.5
09:03 4.9 4.2 95 1013.3 4.5 W 6.9 0.0 0.5
09:04 5.0 4.3 95 1013.4 6.9 SW 6.9 0.0 0.5
09:05 5.0 4.3 95 1013.3 6.0 SW 7.6 0.0 0.5
09:06 5.0 4.3 95 1013.3 5.4 SW 7.6 0.0 0.5
09:07 5.0 4.3 95 1013.4 3.8 SW 7.6 0.0 0.5
09:08 5.0 4.3 95 1013.2 6.9 SW 7.6 0.0 0.5
09:09 5.1 4.4 95 1013.2 6.9 SW 7.6 0.0 0.5
09:10 5.1 4.5 96 1013.4 3.8 SW 7.6 0.0 0.5
09:11 5.1 4.5 96 1013.3 5.4 SW 7.6 0.0 0.5
09:12 5.1 4.5 96 1013.3 6.0 SW 7.6 0.0 0.5
09:13 5.1 4.5 96 1013.3 6.9 SW 7.6 0.0 0.5
09:14 5.1 4.5 96 1013.3 8.3 SW 8.3 0.0 0.5
09:15 5.1 4.5 96 1013.2 8.3 SW 8.3 0.0 0.5
09:16 5.2 4.6 96 1013.4 9.2 S 9.2 0.0 0.5
09:17 5.1 4.5 96 1013.3 9.8 SW 9.8 0.0 0.5
09:18 5.2 4.6 96 1013.4 8.3 SW 9.8 0.0 0.5
09:19 5.2 4.6 96 1013.3 9.2 N 9.8 0.0 0.5
09:21 5.2 4.6 96 1013.3 7.6 SW 9.8 0.0 0.5
09:23 5.2 4.6 96 1013.4 9.2 SW 9.8 0.0 0.5
09:24 5.2 4.6 96 1013.4 9.2 SW 9.8 0.0 0.5
09:25 5.2 4.6 96 1013.4 9.8 W 9.8 0.0 0.5
09:26 5.2 4.6 96 1013.4 7.6 W 9.8 0.0 0.5
09:27 5.2 4.6 96 1013.4 10.7 W 10.7 0.0 0.5
09:28 5.2 4.6 96 1013.4 12.1 SW 12.1 0.0 0.5
09:29 5.2 4.6 96 1013.5 10.7 SW 12.1 0.0 0.5
09:30 5.2 4.6 96 1013.4 9.8 SW 12.1 0.0 0.5
09:31 5.3 4.7 96 1013.4 10.7 SW 12.1 0.0 0.5
09:32 5.3 4.7 96 1013.4 10.7 SW 12.1 0.0 0.5
09:34 5.3 4.7 96 1013.4 7.6 S 12.1 0.0 0.5
09:35 5.3 4.7 96 1013.6 11.4 SW 12.1 0.0 0.5
09:36 5.3 4.7 96 1013.6 10.7 SW 12.1 0.0 0.5
09:37 5.4 4.8 96 1013.5 9.8 SW 12.1 0.0 0.5
09:38 5.4 4.8 96 1013.4 8.3 SW 12.1 0.0 0.5
09:39 5.4 4.8 96 1013.4 6.0 SW 12.1 0.0 0.5
09:40 5.4 4.8 96 1013.2 8.3 SW 12.1 0.0 0.5
09:41 5.4 4.8 96 1013.5 9.2 SW 11.4 0.0 0.5
09:42 5.4 4.8 96 1013.4 12.1 SW 12.1 0.0 0.5
09:43 5.4 4.8 96 1013.2 6.9 SW 12.1 0.0 0.5
09:44 5.5 4.9 96 1013.4 10.7 SW 12.1 0.0 0.5
09:45 5.5 4.9 96 1013.4 9.8 SW 12.1 0.0 0.6
09:46 5.5 4.9 96 1013.2 9.2 W 12.1 0.8 0.6
09:47 5.5 5.1 97 1013.4 9.2 S 12.1 0.8 0.6
09:48 5.6 5.2 97 1013.5 9.2 SW 12.1 0.8 0.6
09:49 5.6 5.2 97 1013.6 9.2 W 12.1 0.8 0.6
09:50 5.6 5.2 97 1013.6 10.7 W 12.1 1.5 0.7
09:51 5.6 5.2 97 1013.7 12.1 W 12.1 1.5 0.7
09:52 5.6 5.2 97 1013.6 19.7 W 19.7 1.5 0.8
09:53 5.6 5.2 97 1013.6 17.4 W 19.7 2.3 0.8
09:54 5.6 5.0 96 1013.5 15.2 W 19.7 2.3 0.8
09:55 5.5 4.9 96 1013.7 6.9 W 19.7 1.5 0.8
09:56 5.5 4.9 96 1013.6 6.9 W 19.7 0.8 0.8
09:57 5.4 4.8 96 1013.8 8.3 W 19.7 0.8 0.8
09:58 5.4 4.8 96 1013.7 5.4 W 19.7 0.8 0.8
09:59 5.3 4.7 96 1013.7 11.4 W 19.7 0.8 0.8
10:00 5.3 4.7 96 1013.8 8.3 W 19.7 0.8 0.8
10:02 5.3 4.7 96 1013.7 8.3 W 19.7 0.8 0.8
10:03 5.3 4.7 96 1013.7 8.3 W 17.4 0.0 0.8
10:04 5.3 4.7 96 1013.7 8.3 W 15.2 0.0 0.8
10:05 5.3 4.7 96 1013.7 8.3 W 11.4 0.0 0.8
10:06 5.1 4.5 96 1013.7 7.6 W 11.4 0.0 0.8
10:07 5.1 4.5 96 1013.7 8.3 W 11.4 0.0 0.8
10:08 5.0 4.4 96 1013.7 5.4 W 11.4 0.0 0.8
10:09 5.0 4.4 96 1013.8 6.0 W 11.4 0.0 0.8
10:11 5.0 4.6 97 1013.8 7.6 W 8.3 0.0 0.9
10:12 5.1 4.7 97 1013.7 10.7 W 10.7 0.8 0.9
10:14 5.1 4.8 98 1013.7 10.7 SW 10.7 0.8 0.9
10:15 5.2 4.9 98 1013.8 11.4 SW 11.4 0.8 0.9
10:16 5.1 4.8 98 1013.8 8.3 W 11.4 0.8 0.9
10:17 5.2 4.9 98 1013.8 9.8 W 11.4 0.0 0.9
10:18 5.3 5.0 98 1013.8 10.7 N 11.4 0.0 0.9
10:19 5.3 5.0 98 1013.8 9.2 W 11.4 0.0 0.9
10:20 5.3 5.0 98 1013.8 7.6 W 11.4 0.0 0.9
10:21 5.3 5.0 98 1013.8 7.6 SW 11.4 0.0 0.9
10:22 5.4 5.1 98 1013.9 7.6 W 11.4 0.0 0.9
10:23 5.4 5.1 98 1014.0 9.8 SW 11.4 0.0 0.9
10:25 5.5 5.2 98 1013.9 5.4 SW 11.4 0.0 0.9
10:26 5.5 5.2 98 1013.9 9.2 SW 10.7 0.0 0.9
10:27 5.6 5.3 98 1013.9 7.6 SW 10.7 0.0 0.9
10:28 5.7 5.4 98 1013.9 7.6 W 10.7 0.0 0.9
10:29 5.7 5.4 98 1013.8 8.3 W 10.7 0.0 0.9
10:30 5.8 5.5 98 1013.8 9.2 W 10.7 0.0 0.9
10:31 5.8 5.5 98 1014.0 10.7 W 10.7 0.0 0.9
10:32 5.9 5.6 98 1014.0 10.7 SW 10.7 0.8 0.9
10:33 5.9 5.6 98 1014.0 7.6 W 10.7 0.8 0.9
10:34 6.0 5.7 98 1014.0 9.8 SW 10.7 0.8 0.9
10:35 6.0 5.7 98 1014.0 9.2 SW 10.7 0.8 0.9
10:36 6.0 5.7 98 1014.0 10.7 W 10.7 0.8 0.9
10:37 6.1 5.8 98 1014.0 12.1 W 12.1 0.0 0.9
10:38 6.2 5.9 98 1013.9 13.0 SW 13.0 0.0 0.9
10:39 6.2 5.9 98 1014.0 9.8 SW 13.0 0.0 0.9
10:40 6.2 5.9 98 1014.0 6.9 W 13.0 0.0 0.9
10:41 6.2 5.8 97 1014.0 12.1 W 13.0 0.0 0.9
10:42 6.2 5.8 97 1013.9 13.6 SW 13.6 0.0 0.9
10:43 6.3 5.9 97 1013.9 13.6 W 15.9 0.0 0.9
10:44 6.3 5.9 97 1013.9 11.4 SW 15.9 0.0 0.9
10:45 6.3 5.9 97 1014.0 12.1 W 15.9 0.0 0.9
10:46 6.4 6.0 97 1013.9 7.6 W 15.9 0.0 0.9
10:47 6.4 6.0 97 1013.9 10.7 SW 15.9 0.0 0.9
10:48 6.4 6.0 97 1013.9 13.0 W 15.9 0.0 0.9
10:49 6.5 6.1 97 1013.8 13.0 SW 15.9 0.0 0.9
10:50 6.5 5.9 96 1013.8 9.8 SW 15.9 0.0 0.9
10:51 6.6 6.0 96 1014.0 11.4 SW 15.9 0.0 0.9
10:52 6.6 6.0 96 1013.9 13.0 N 15.9 0.0 0.9
10:53 6.7 6.1 96 1014.0 10.7 W 13.6 0.0 0.9
10:55 6.8 6.1 95 1013.8 11.4 W 13.0 0.0 0.9
10:56 6.9 6.2 95 1013.9 10.7 NNW 13.0 0.0 0.9
10:57 7.0 6.1 94 1013.7 14.5 SW 14.5 0.0 0.9
10:58 7.0 6.1 94 1013.8 15.9 SW 15.9 0.0 0.9
10:59 7.0 5.9 93 1013.8 14.5 SW 15.9 0.0 0.9
11:00 7.1 6.0 93 1013.7 13.0 W 15.9 0.0 0.9
11:01 7.1 6.0 93 1013.7 13.0 W 15.9 0.0 0.9
11:02 7.1 6.0 93 1013.7 15.2 SW 15.9 0.0 0.9
11:03 7.1 6.0 93 1014.0 13.6 SW 15.9 0.0 0.9
11:04 7.1 6.0 93 1013.9 16.8 W 16.8 0.0 0.9
11:05 7.0 5.9 93 1013.9 12.1 NW 16.8 0.0 0.9
11:06 7.0 5.9 93 1013.8 11.4 SW 16.8 0.8 1.0
11:07 7.0 5.9 93 1014.1 13.6 S 16.8 0.8 1.0
11:08 6.9 5.8 93 1013.9 19.7 SW 19.7 0.8 1.0
11:09 6.8 5.6 92 1013.9 21.3 WSW 23.5 0.8 1.0
11:10 6.8 5.6 92 1013.9 22.8 S 23.5 0.8 1.0
11:11 6.7 5.5 92 1013.9 17.4 SW 23.5 0.0 1.0
11:12 6.6 5.4 92 1014.0 17.4 S 23.5 0.0 1.0
11:13 6.4 5.2 92 1013.8 11.4 SW 23.5 0.0 1.0
11:14 6.3 4.9 91 1013.7 18.3 W 23.5 0.0 1.0
11:15 6.2 5.0 92 1013.7 12.1 NW 23.5 0.0 1.0
11:16 6.1 4.9 92 1013.7 19.0 SW 23.5 0.0 1.0
11:17 6.0 4.8 92 1013.7 15.2 SW 23.5 0.0 1.0
11:18 5.9 4.7 92 1013.6 10.7 W 22.8 0.0 1.0
11:19 5.8 4.6 92 1013.7 12.1 SW 22.8 0.0 1.0
11:20 5.8 4.6 92 1013.7 13.0 S 19.0 0.0 1.0
11:21 5.7 4.5 92 1013.6 10.7 SW 19.0 0.0 1.0
11:22 5.7 4.7 93 1013.6 12.1 W 19.0 0.0 1.0
11:23 5.7 4.8 94 1013.6 13.6 SW 19.0 0.0 1.0
11:24 5.7 4.8 94 1013.7 9.2 W 19.0 0.0 1.0
11:25 5.7 5.0 95 1013.8 9.2 SW 19.0 0.0 1.0
11:26 5.8 5.1 95 1013.5 10.7 SW 15.2 0.0 1.0
11:28 5.8 5.1 95 1013.6 12.1 SW 13.6 0.0 1.0
11:29 5.8 5.1 95 1013.6 10.7 W 13.6 0.0 1.0
11:30 5.8 5.1 95 1013.6 9.2 W 13.6 0.0 1.0
11:31 5.8 5.1 95 1013.7 10.7 SW 13.6 0.0 1.0
11:32 5.9 5.2 95 1013.7 9.2 SW 13.6 0.0 1.0
11:33 5.8 5.1 95 1013.8 6.9 SW 13.6 0.0 1.1
11:34 5.8 5.1 95 1013.7 8.3 SW 13.6 0.8 1.1
11:35 5.8 5.1 95 1013.6 9.8 SW 13.6 0.8 1.1
11:36 5.8 5.1 95 1013.6 11.4 W 13.6 1.5 1.1
11:37 5.8 5.1 95 1013.6 11.4 SW 13.6 1.5 1.1
11:38 5.7 5.0 95 1013.7 8.3 S 13.6 1.5 1.1
11:39 5.7 5.0 95 1013.6 5.4 SW 13.6 0.8 1.1
11:40 5.6 4.9 95 1013.6 9.2 SW 13.6 0.8 1.1
11:41 5.7 5.0 95 1013.5 9.8 SW 13.6 0.0 1.1
11:42 5.6 4.9 95 1013.6 6.9 SW 13.6 0.0 1.1
11:43 5.6 4.9 95 1013.5 6.0 SW 11.4 0.0 1.1
11:44 5.6 4.9 95 1013.4 5.4 W 11.4 0.0 1.1
11:45 5.6 4.9 95 1013.4 9.8 SW 11.4 0.0 1.1
11:46 5.6 5.0 96 1013.4 7.6 SW 11.4 0.0 1.1
11:47 5.6 4.9 95 1013.3 8.3 WNW 11.4 0.0 1.1
11:48 5.6 4.9 95 1013.3 10.7 W 11.4 0.0 1.1
11:49 5.5 4.9 96 1013.4 9.2 SW 11.4 0.0 1.1
11:50 5.5 4.9 96 1013.3 8.3 SW 11.4 0.0 1.1
11:51 5.5 4.9 96 1013.3 7.6 SW 11.4 0.0 1.1
11:52 5.5 4.9 96 1013.3 9.2 SW 11.4 0.0 1.1
11:53 5.5 4.9 96 1013.4 6.0 SW 11.4 0.0 1.1
11:54 5.4 4.8 96 1013.3 8.3 SW 11.4 0.0 1.1
11:56 5.5 4.9 96 1013.3 9.8 SW 11.4 0.0 1.1
11:57 5.6 5.0 96 1013.4 8.3 SW 10.7 0.0 1.1
11:58 5.6 5.2 97 1013.3 7.6 W 10.7 0.0 1.1
11:59 5.7 5.4 98 1013.3 6.9 SW 9.8 0.0 1.1
12:02 5.9 5.6 98 1013.3 9.2 SW 9.8 0.0 1.1
12:05 6.0 5.7 98 1013.4 10.7 SW 10.7 0.0 1.1
12:07 6.1 6.0 99 1013.3 9.2 W 10.7 0.0 1.1
12:09 6.1 6.0 99 1013.3 12.1 S 12.1 0.0 1.1
12:11 6.3 6.2 99 1013.3 11.4 SW 13.6 0.0 1.1
12:13 6.4 6.3 99 1013.3 12.1 SW 13.6 0.0 1.1
12:15 6.5 6.4 99 1013.1 14.5 SW 14.5 0.0 1.1
12:16 6.6 6.5 99 1013.2 16.8 W 16.8 0.0 1.1
12:18 6.6 6.3 98 1013.3 13.0 SW 16.8 0.0 1.1
12:20 6.6 6.3 98 1013.3 13.0 SW 16.8 0.0 1.1
12:21 6.6 6.2 97 1013.2 13.0 W 17.4 0.0 1.1
12:24 6.6 6.2 97 1013.2 19.0 NW 19.0 0.0 1.1
12:26 6.6 6.2 97 1013.2 11.4 SW 19.0 0.0 1.1
12:28 6.6 6.2 97 1013.2 13.0 W 19.0 0.0 1.1
12:30 6.7 6.1 96 1013.2 13.0 SW 19.0 0.0 1.1
12:32 6.7 6.1 96 1013.2 15.9 SW 19.0 0.0 1.1
12:34 6.7 6.1 96 1013.3 9.8 SW 15.9 0.0 1.1
12:36 6.8 6.2 96 1013.2 13.0 W 15.9 0.0 1.1
12:38 6.9 6.3 96 1013.2 14.5 SW 16.8 0.0 1.1
12:40 6.9 6.3 96 1013.2 11.4 NW 16.8 0.0 1.1
12:41 7.0 6.4 96 1013.1 17.4 SW 17.4 0.0 1.1
12:43 7.0 6.4 96 1013.3 13.6 W 17.4 0.0 1.1
12:45 7.0 6.3 95 1013.2 10.7 W 17.4 0.0 1.1
12:46 7.0 6.3 95 1013.3 11.4 W 17.4 0.0 1.1
12:48 7.0 6.3 95 1013.2 19.0 SW 19.0 0.0 1.1
12:50 7.1 6.2 94 1013.0 17.4 NW 19.7 0.0 1.1
12:51 7.2 6.3 94 1013.2 15.2 W 19.7 0.0 1.1
12:53 7.4 6.3 93 1013.2 15.9 NW 19.7 0.0 1.1
12:55 7.5 6.4 93 1013.3 14.5 SW 19.7 0.0 1.1
12:57 7.6 6.5 93 1013.2 15.9 SW 19.7 0.0 1.1
12:58 7.6 6.5 93 1013.1 16.8 NNE 19.7 0.0 1.1
13:00 7.7 6.5 92 1013.0 15.2 W 19.7 0.0 1.1
13:01 7.7 6.5 92 1013.1 15.2 W 19.7 0.0 1.1
13:02 7.8 6.6 92 1013.2 17.4 SW 19.7 0.0 1.1
13:04 7.9 6.5 91 1013.1 11.4 SW 18.3 0.0 1.1
13:05 7.9 6.5 91 1013.1 16.8 SW 18.3 0.0 1.1
13:06 7.9 6.5 91 1013.0 14.5 SW 18.3 0.0 1.1
13:08 7.9 6.5 91 1013.2 11.4 SW 18.3 0.0 1.1
13:09 7.9 6.5 91 1013.1 13.6 W 17.4 0.0 1.1
13:10 7.9 6.5 91 1013.1 19.7 SW 19.7 0.0 1.1
13:11 7.9 6.4 90 1013.0 15.2 SW 19.7 0.0 1.1
13:12 7.8 6.3 90 1012.9 13.6 SW 19.7 0.0 1.1
13:13 7.9 6.4 90 1012.9 14.5 SW 19.7 0.0 1.1
13:14 7.9 6.4 90 1013.1 11.4 SW 19.7 0.0 1.1
13:15 7.9 6.5 91 1012.9 12.1 SW 19.7 0.0 1.1
13:16 7.9 6.5 91 1012.9 14.5 SW 19.7 0.0 1.1
13:18 8.0 6.6 91 1012.9 15.9 WSW 19.7 0.0 1.1
13:19 7.9 6.5 91 1013.1 9.8 WSW 19.7 0.0 1.1
13:20 7.9 6.5 91 1013.2 15.9 W 19.7 0.0 1.1
13:21 7.8 6.4 91 1013.2 12.1 WNW 15.9 0.0 1.1
13:23 7.7 6.3 91 1013.1 18.3 W 22.1 0.8 1.2
13:24 7.6 6.2 91 1013.2 19.7 SW 22.1 0.8 1.2
13:25 7.5 6.1 91 1013.1 15.9 WNW 22.1 0.8 1.2
13:26 7.4 5.9 90 1013.3 15.2 NW 22.1 0.8 1.2
13:28 7.2 5.8 91 1013.1 10.7 SW 22.1 0.0 1.2
13:29 7.1 5.7 91 1013.1 11.4 N 22.1 0.0 1.2
13:30 7.1 5.7 91 1013.1 13.0 SW 22.1 0.0 1.2
13:31 7.0 5.6 91 1013.1 13.0 SW 22.1 0.0 1.2
13:33 6.9 5.5 91 1013.2 12.1 SW 19.7 0.0 1.2
13:34 6.8 5.4 91 1013.2 14.5 SW 19.7 0.0 1.2
13:35 6.8 5.4 91 1013.3 10.7 SW 15.9 0.0 1.2
13:36 6.8 5.4 91 1013.2 14.5 SW 15.9 0.0 1.2
13:37 6.8 5.4 91 1013.2 11.4 SW 15.2 0.0 1.2
13:38 6.7 5.5 92 1013.2 14.5 SW 15.2 0.0 1.2
13:40 6.7 5.5 92 1013.1 7.6 SW 15.2 0.0 1.2
13:41 6.7 5.5 92 1013.2 6.0 SW 15.2 0.0 1.2
13:42 6.7 5.5 92 1013.0 9.8 W 15.2 0.0 1.2
13:43 6.7 5.5 92 1013.0 8.3 W 15.2 0.0 1.2
13:44 6.7 5.5 92 1012.8 5.4 SW 15.2 0.0 1.2
13:46 6.7 5.5 92 1013.1 9.2 W 14.5 0.0 1.2
13:47 6.6 5.4 92 1013.0 13.0 SW 14.5 0.0 1.2
13:48 6.6 5.6 93 1013.2 11.4 SW 15.9 0.8 1.3
13:49 6.6 5.6 93 1013.1 13.6 SW 15.9 0.8 1.3
13:50 6.6 5.6 93 1013.1 14.5 SW 15.9 1.5 1.3
13:51 6.6 5.6 93 1013.4 26.6 W 26.6 1.5 1.5
13:52 6.5 5.3 92 1013.6 14.5 W 26.6 4.5 1.6
13:53 6.3 5.1 92 1013.4 18.3 SW 26.6 4.5 1.7
13:54 6.3 5.1 92 1013.4 17.4 NW 26.6 5.3 1.8
13:55 6.1 5.1 93 1013.4 11.4 SW 26.6 5.3 1.8
13:57 6.0 4.8 92 1013.4 10.7 W 26.6 3.0 1.8
13:58 5.9 4.9 93 1013.4 6.9 SW 26.6 2.3 1.8
13:59 5.8 4.8 93 1013.3 9.8 SW 26.6 1.5 1.8
14:00 5.7 4.7 93 1013.1 8.3 W 26.6 0.8 1.8
14:01 5.7 4.7 93 1013.1 8.3 W 22.1 0.8 1.8
14:02 5.7 4.7 93 1013.1 8.3 W 18.3 0.0 1.8
14:03 5.7 4.7 93 1013.1 8.3 W 17.4 0.0 1.8
14:04 5.7 4.7 93 1013.1 8.3 W 11.4 0.0 1.8
14:06 5.5 4.6 94 1013.0 9.8 SW 11.4 0.0 1.8
14:07 5.5 4.6 94 1012.9 10.7 SW 11.4 0.0 1.8
14:08 5.5 4.6 94 1013.2 9.8 W 11.4 0.0 1.8
14:09 5.5 4.6 94 1013.1 9.8 SW 11.4 0.0 1.8
14:11 5.5 4.6 94 1013.1 10.7 SW 10.7 0.0 1.8
14:12 5.5 4.8 95 1013.1 9.2 W 11.4 0.0 1.8
14:14 5.5 4.8 95 1013.1 11.4 SW 11.4 0.0 1.8
14:15 5.4 4.7 95 1013.1 11.4 W 11.4 0.0 1.8
14:17 5.4 4.7 95 1013.2 9.8 SW 11.4 0.0 1.8
14:18 5.4 4.7 95 1013.1 8.3 W 11.4 0.0 1.8
14:20 5.5 4.8 95 1013.1 7.6 W 11.4 0.0 1.8
14:21 5.5 4.9 96 1013.2 11.4 W 11.4 0.0 1.8
14:22 5.5 4.9 96 1013.1 7.6 SW 11.4 0.0 1.8
14:23 5.5 4.9 96 1013.1 9.2 SW 11.4 0.0 1.8
14:24 5.5 4.9 96 1012.9 9.2 SW 11.4 0.0 1.8
14:26 5.5 4.9 96 1012.9 9.2 SW 11.4 0.0 1.8
14:27 5.5 4.9 96 1012.9 9.2 W 11.4 0.0 1.8
14:28 5.5 4.9 96 1012.9 9.8 WNW 11.4 0.0 1.8
14:29 5.5 4.9 96 1013.0 9.8 SW 11.4 0.0 1.8
14:30 5.6 5.2 97 1012.7 9.8 SW 11.4 0.0 1.8
14:32 5.6 5.2 97 1012.9 9.8 SW 12.1 0.0 1.8
14:33 5.6 5.2 97 1012.7 9.8 SW 12.1 0.0 1.8
14:34 5.7 5.3 97 1012.7 13.6 W 13.6 0.0 1.8
14:35 5.7 5.3 97 1012.8 14.5 W 14.5 0.0 1.8
14:36 5.7 5.3 97 1012.9 11.4 SW 14.5 0.0 1.8
14:37 5.7 5.3 97 1013.0 10.7 SW 14.5 0.0 1.8
14:39 5.7 5.3 97 1012.8 12.1 SW 14.5 0.0 1.8
14:40 5.8 5.4 97 1012.7 15.2 SW 16.8 0.0 1.8
14:41 5.8 5.4 97 1012.9 13.0 W 16.8 0.0 1.8
14:43 5.9 5.5 97 1013.0 13.0 SW 16.8 0.0 1.8
14:44 5.9 5.5 97 1013.1 11.4 SW 16.8 0.0 1.8
14:45 5.9 5.5 97 1013.0 12.1 SW 16.8 0.0 1.8
14:46 5.9 5.5 97 1013.0 10.7 SW 16.8 0.0 1.8
14:48 5.9 5.5 97 1013.1 11.4 NW 16.8 0.0 1.8
14:49 6.0 5.6 97 1013.1 11.4 W 16.8 0.0 1.8
14:51 6.0 5.6 97 1013.0 11.4 W 15.9 0.0 1.8
14:52 6.0 5.6 97 1013.0 13.6 W 15.9 0.0 1.8
14:53 6.0 5.4 96 1012.9 13.0 SW 15.9 0.0 1.8
14:54 6.0 5.6 97 1012.8 11.4 W 13.6 0.0 1.8
14:55 6.1 5.5 96 1012.9 12.1 W 13.6 0.0 1.8
14:57 6.1 5.5 96 1012.9 19.0 S 19.0 0.0 1.8
14:58 6.1 5.5 96 1012.9 11.4 SW 19.0 0.0 1.8
14:59 6.1 5.5 96 1012.9 9.8 W 19.0 0.0 1.8
15:00 6.1 5.5 96 1013.0 9.8 W 19.0 0.0 1.8
15:02 6.1 5.5 96 1012.8 9.8 W 19.0 0.0 1.8
15:04 6.1 5.5 96 1012.9 9.8 W 19.0 0.0 1.8
15:05 6.1 5.5 96 1012.9 9.8 W 19.0 0.0 1.8
15:06 6.1 5.5 96 1013.0 7.6 SW 19.0 0.0 1.8
15:07 6.1 5.5 96 1012.8 6.9 W 19.0 0.0 1.8
15:08 6.2 5.8 97 1012.9 6.0 SW 11.4 0.0 1.8
15:09 6.1 5.7 97 1013.0 9.8 N 9.8 0.0 1.8
15:11 6.1 5.7 97 1012.9 6.0 SW 9.8 0.0 1.8
15:12 6.1 5.7 97 1013.0 6.9 SW 9.8 0.0 1.8
15:13 6.1 5.7 97 1013.0 9.8 SW 9.8 0.0 1.8
15:14 6.1 5.7 97 1012.9 6.9 SW 9.8 0.0 1.8
15:15 6.1 5.7 97 1012.9 6.0 SW 9.8 0.0 1.8
15:16 6.1 5.7 97 1013.0 9.2 SW 9.8 0.0 1.8
15:17 6.1 5.7 97 1013.0 8.3 SW 9.8 0.0 1.8
15:19 6.1 5.7 97 1013.0 9.8 SW 9.8 0.0 1.8
15:20 6.1 5.7 97 1013.1 11.4 SW 11.4 0.0 1.8
15:21 6.1 5.7 97 1013.1 15.9 SW 15.9 0.0 1.8
15:22 6.1 5.7 97 1012.9 13.6 SW 17.4 0.0 1.8
15:23 6.1 5.7 97 1013.1 12.1 SW 17.4 0.8 1.9
15:24 6.1 5.7 97 1013.0 9.8 W 17.4 0.8 2.0
15:25 6.1 5.7 97 1013.2 8.3 W 17.4 2.3 2.1
15:27 6.1 5.7 97 1013.1 13.6 SW 17.4 3.0 2.1
15:28 6.1 5.7 97 1013.0 15.9 SW 17.4 3.0 2.1
15:29 6.1 5.7 97 1013.1 14.5 W 17.4 2.3 2.1
15:30 6.1 5.7 97 1013.0 14.5 W 17.4 0.8 2.1
15:31 6.0 5.6 97 1012.8 9.2 W 17.4 0.0 2.1
15:33 6.0 5.6 97 1012.8 10.7 SW 16.8 0.0 2.1
15:34 6.0 5.6 97 1013.0 12.1 SW 16.8 0.0 2.1
15:35 6.0 5.6 97 1012.9 12.1 SW 16.8 0.0 2.1
15:36 6.0 5.6 97 1012.7 11.4 SW 16.8 0.0 2.1
15:37 5.9 5.5 97 1012.9 10.7 SW 16.8 0.0 2.1
15:39 5.9 5.5 97 1012.8 10.7 W 16.8 0.0 2.1
15:40 5.9 5.5 97 1013.0 12.1 SW 16.8 0.0 2.1
15:41 5.9 5.5 97 1012.8 10.7 SW 13.6 0.0 2.1
15:42 5.9 5.5 97 1012.9 9.8 SW 13.6 0.0 2.1
15:43 5.9 5.5 97 1012.9 11.4 SW 13.6 0.0 2.1
15:44 5.9 5.5 97 1012.9 7.6 W 13.6 0.0 2.1
15:46 5.9 5.5 97 1012.7 10.7 SW 13.6 0.0 2.1
15:47 5.8 5.4 97 1012.9 9.8 N 13.6 0.0 2.1
15:48 5.8 5.4 97 1012.9 11.4 NW 13.0 0.0 2.1
15:49 5.8 5.4 97 1012.8 12.1 SW 13.0 0.0 2.1
15:50 5.8 5.4 97 1012.7 9.2 SW 13.0 0.0 2.1
15:51 5.7 5.3 97 1012.8 11.4 NW 12.1 0.0 2.1
15:52 5.7 5.3 97 1013.1 8.3 SW 12.1 0.0 2.1
15:53 5.7 5.3 97 1012.9 7.6 SW 12.1 0.0 2.1
15:54 5.7 5.3 97 1012.9 10.7 SW 12.1 0.0 2.1
15:56 5.6 5.2 97 1013.1 10.7 SW 12.1 0.0 2.1
15:57 5.6 5.2 97 1013.1 10.7 SW 12.1 0.0 2.1
15:58 5.6 5.2 97 1013.1 7.6 SW 12.1 0.0 2.1
15:59 5.6 5.2 97 1013.0 6.9 SW 11.4 0.0 2.1
16:00 5.5 5.2 98 1012.9 9.2 SW 11.4 0.0 2.1
16:01 5.5 5.2 98 1013.1 9.2 SW 10.7 0.0 2.1
16:02 5.5 5.1 97 1013.0 9.8 SW 10.7 0.0 2.1
16:03 5.5 5.1 97 1013.2 8.3 SW 10.7 0.0 2.1
16:04 5.5 5.2 98 1013.2 13.0 SW 13.0 0.0 2.1
16:05 5.5 5.2 98 1013.1 10.7 SW 13.0 0.0 2.1
16:07 5.5 5.2 98 1013.1 6.9 SW 13.0 0.0 2.1
16:08 5.5 5.2 98 1013.2 6.9 SW 13.0 0.0 2.1
16:09 5.5 5.2 98 1013.2 6.9 SW 13.0 0.0 2.1
16:10 5.5 5.2 98 1013.2 7.6 SW 13.0 0.0 2.1
16:11 5.5 5.2 98 1013.1 7.6 SW 13.0 0.0 2.1
16:12 5.5 5.2 98 1013.2 6.0 W 13.0 0.0 2.1
16:13 5.5 5.2 98 1013.1 7.6 W 13.0 0.0 2.1
16:15 5.5 5.2 98 1013.2 7.6 SW 13.0 0.0 2.1
16:16 5.5 5.2 98 1012.9 9.2 S 9.2 0.0 2.1
16:18 5.5 5.2 98 1013.0 7.6 SW 9.2 0.0 2.1
16:19 5.5 5.2 98 1013.0 6.0 W 9.2 0.0 2.1
16:21 5.5 5.4 99 1013.0 6.9 SW 9.8 0.0 2.1
16:22 5.5 5.4 99 1012.9 7.6 SW 9.8 0.0 2.1
16:23 5.5 5.4 99 1012.9 6.0 SW 9.8 0.0 2.1
16:24 5.5 5.4 99 1012.8 9.8 SW 9.8 0.0 2.1
16:25 5.5 5.4 99 1012.9 6.9 W 9.8 0.0 2.1
16:26 5.5 5.4 99 1012.9 7.6 SW 9.8 0.0 2.1
16:27 5.5 5.4 99 1013.1 13.0 SW 13.0 0.0 2.1
16:28 5.5 5.4 99 1012.8 9.8 SW 13.0 0.0 2.1
16:29 5.5 5.4 99 1012.9 13.0 SW 13.0 0.0 2.1
16:31 5.5 5.4 99 1012.7 11.4 W 13.0 0.0 2.1
16:32 5.5 5.4 99 1012.8 9.2 W 13.0 0.0 2.1
16:33 5.5 5.4 99 1012.9 9.2 SW 13.0 0.0 2.1
16:34 5.5 5.4 99 1012.8 12.1 S 13.0 0.0 2.1
16:35 5.5 5.4 99 1012.7 10.7 SW 13.0 0.0 2.1
16:37 5.4 5.3 99 1012.9 9.2 SW 13.0 0.0 2.1
16:38 5.4 5.3 99 1012.8 9.2 SW 13.0 0.0 2.1
16:39 5.4 5.3 99 1012.9 8.3 SW 13.0 0.0 2.1
16:40 5.4 5.3 99 1012.9 11.4 SW 12.1 0.0 2.1
16:42 5.3 5.2 99 1013.0 9.2 SW 12.1 0.0 2.1
16:43 5.3 5.2 99 1012.9 6.0 SW 12.1 0.0 2.1
16:44 5.3 5.2 99 1012.9 9.2 SW 12.1 0.0 2.1
16:45 5.3 5.2 99 1012.9 9.8 SW 11.4 0.0 2.1
16:46 5.2 4.9 98 1012.8 9.2 S 11.4 0.0 2.1
16:47 5.2 5.1 99 1012.8 6.0 S 11.4 0.0 2.1
16:48 5.2 5.1 99 1012.9 6.9 S 11.4 0.0 2.1
16:49 5.1 4.8 98 1012.7 8.3 W 11.4 0.0 2.1
16:50 5.1 4.8 98 1012.7 9.8 SW 11.4 0.0 2.1
16:52 5.1 4.8 98 1012.9 7.6 SW 10.7 0.0 2.1
16:53 5.1 4.8 98 1012.8 8.3 S 10.7 0.0 2.1
16:54 5.1 5.0 99 1012.8 6.9 S 10.7 0.0 2.1
16:55 5.1 5.0 99 1012.8 6.9 S 10.7 0.0 2.1
16:56 5.0 4.9 99 1012.8 9.2 SW 10.7 0.0 2.1
16:57 5.0 4.9 99 1012.7 6.9 SW 10.7 0.0 2.1
16:58 5.0 4.7 98 1012.8 9.2 W 10.7 0.0 2.1
16:59 4.9 4.8 99 1012.7 8.3 SW 10.7 0.0 2.1
17:00 5.0 4.9 99 1012.9 6.0 N 10.7 0.0 2.1
17:02 5.0 4.9 99 1012.8 6.0 N 9.2 0.0 2.1
17:03 5.0 4.9 99 1012.9 6.0 N 9.2 0.0 2.1
17:04 5.0 4.9 99 1012.8 6.0 N 9.2 0.0 2.1
17:05 5.0 4.9 99 1013.0 6.0 N 9.2 0.0 2.1
17:06 4.9 4.8 99 1012.9 5.4 SW 9.2 0.0 2.1
17:07 4.9 4.8 99 1012.9 5.4 SW 9.2 0.0 2.1
17:08 4.9 4.8 99 1013.0 6.9 SW 8.3 0.0 2.1
17:10 4.9 4.8 99 1012.9 5.4 SW 8.3 0.0 2.1
17:11 4.9 4.8 99 1012.9 4.5 SW 6.9 0.0 2.1
17:12 4.9 4.8 99 1012.7 6.0 S 6.9 0.0 2.1
17:13 4.9 4.8 99 1012.7 6.0 SW 6.9 0.0 2.1
17:15 4.9 4.8 99 1012.8 6.9 S 6.9 0.0 2.1
17:16 4.9 4.8 99 1012.8 4.5 S 6.9 0.0 2.1
17:17 4.9 4.8 99 1012.8 5.4 SW 6.9 0.0 2.1
17:18 4.9 4.8 99 1012.8 4.5 S 6.9 0.0 2.1
17:19 4.8 4.7 99 1012.8 5.4 SW 7.6 0.0 2.1
17:21 4.8 4.7 99 1012.7 6.9 W 7.6 0.0 2.1
17:22 4.8 4.7 99 1012.8 6.0 SW 7.6 0.0 2.1
17:23 4.8 4.7 99 1012.9 6.0 SW 7.6 0.0 2.1
17:24 4.8 4.7 99 1012.7 5.4 SW 7.6 0.0 2.1
17:25 4.8 4.7 99 1012.7 6.9 SW 7.6 0.0 2.1
17:26 4.8 4.7 99 1012.8 6.9 SW 7.6 0.0 2.1
17:27 4.8 4.7 99 1012.8 6.9 SW 7.6 0.0 2.1
17:28 4.8 4.7 99 1012.9 5.4 SW 7.6 0.0 2.1
17:29 4.8 4.7 99 1012.8 6.0 SW 6.9 0.0 2.1
17:30 4.7 4.6 99 1012.8 7.6 SW 7.6 0.0 2.1
17:31 4.8 4.7 99 1012.6 4.5 SW 7.6 0.0 2.1
17:33 4.9 4.8 99 1012.7 4.5 SW 7.6 0.0 2.1
17:34 4.9 4.8 99 1012.8 4.5 SW 7.6 0.0 2.1
17:35 4.8 4.7 99 1012.8 5.4 SW 7.6 0.0 2.1
17:36 4.9 4.8 99 1012.7 5.4 SW 7.6 0.0 2.1
17:37 4.9 4.8 99 1012.8 5.4 SW 7.6 0.0 2.1
17:38 4.9 4.8 99 1012.8 5.4 S 7.6 0.0 2.1
17:39 4.9 4.8 99 1012.6 4.5 SW 7.6 0.0 2.1
17:41 4.9 4.8 99 1012.8 6.0 SW 6.9 0.0 2.1
17:42 4.9 4.8 99 1012.8 6.0 SW 6.0 0.0 2.1
17:43 4.9 4.8 99 1012.9 9.2 SW 9.2 0.0 2.1
17:44 4.9 4.8 99 1012.8 13.0 SW 13.0 0.0 2.1
17:45 4.9 4.8 99 1012.9 10.7 SW 13.0 0.0 2.1
17:46 4.9 4.8 99 1013.0 7.6 S 13.0 1.5 2.2
17:47 5.0 4.9 99 1012.9 6.0 S 13.0 1.5 2.3
17:48 5.0 4.9 99 1013.0 6.0 SW 13.0 3.0 2.3
17:49 5.0 4.9 99 1013.0 6.9 SW 13.0 3.0 2.4
17:50 5.0 4.9 99 1013.0 9.2 SW 13.0 3.8 2.4
17:52 5.0 4.9 99 1013.0 16.8 SW 16.8 3.8 2.5
17:53 5.1 5.0 99 1013.1 11.4 SW 16.8 2.3 2.5
17:54 5.1 5.0 99 1012.9 7.6 S 16.8 2.3 2.5
17:55 5.1 5.0 99 1012.8 6.0 SW 16.8 1.5 2.5
17:56 5.1 5.0 99 1012.8 8.3 SW 16.8 0.8 2.5
17:57 5.1 5.0 99 1012.8 9.8 N 16.8 0.0 2.6
17:58 5.1 5.0 99 1012.8 8.3 W 16.8 0.8 2.6
17:59 5.2 5.1 99 1012.8 9.2 W 16.8 0.8 2.6
18:00 5.2 5.1 99 1012.9 10.7 N 16.8 0.8 2.6
18:01 5.2 5.1 99 1012.8 10.7 N 16.8 0.8 2.6
18:03 5.2 5.1 99 1012.7 10.7 N 13.0 0.0 2.6
18:04 5.2 5.1 99 1012.9 10.7 N 13.0 0.0 2.6
18:05 5.2 5.1 99 1012.7 10.7 N 13.0 0.0 2.6
18:06 5.2 5.1 99 1012.7 12.1 N 13.0 0.0 2.6
18:07 5.2 5.1 99 1012.7 9.8 N 12.1 0.0 2.6
18:08 5.2 5.1 99 1012.8 8.3 N 12.1 0.0 2.6
18:10 5.2 5.1 99 1012.7 8.3 N 12.1 0.0 2.6
18:11 5.2 5.1 99 1012.7 9.2 N 12.1 0.0 2.6
18:12 5.2 5.1 99 1012.7 10.7 N 12.1 0.0 2.6
18:13 5.3 5.2 99 1012.9 9.8 N 12.1 0.0 2.6
18:15 5.2 5.1 99 1012.7 10.7 N 12.1 0.0 2.6
18:17 5.3 5.2 99 1012.7 8.3 N 12.1 0.0 2.6
18:18 5.2 5.1 99 1012.7 6.9 N 12.1 0.0 2.6
18:20 5.3 5.2 99 1012.9 6.9 N 12.1 0.0 2.6
18:21 5.3 5.2 99 1012.9 8.3 N 12.1 0.0 2.6
18:23 5.3 5.2 99 1013.0 6.9 N 10.7 0.0 2.6
18:24 5.2 5.1 99 1012.8 8.3 SW 10.7 0.0 2.6
18:26 5.3 5.2 99 1012.7 9.2 W 9.8 0.0 2.6
18:27 5.2 5.1 99 1012.8 9.2 W 9.8 0.0 2.6
18:29 5.3 5.2 99 1012.6 8.3 N 9.8 0.0 2.6
18:30 5.2 5.1 99 1012.7 9.8 N 9.8 0.0 2.6
18:31 5.3 5.2 99 1012.7 7.6 WSW 9.8 0.0 2.6
18:33 5.3 5.2 99 1012.8 7.6 N 9.8 0.0 2.6
18:34 5.3 5.2 99 1012.7 9.8 WSW 9.8 0.0 2.6
18:35 5.3 5.2 99 1012.6 8.3 W 9.8 0.0 2.6
18:36 5.2 5.1 99 1012.7 7.6 N 9.8 0.0 2.6
18:38 5.2 5.1 99 1012.6 8.3 W 9.8 0.0 2.6
18:39 5.3 5.2 99 1012.5 10.7 N 10.7 0.0 2.6
18:40 5.3 5.2 99 1012.5 8.3 N 10.7 0.0 2.6
18:41 5.2 5.1 99 1012.6 9.8 WSW 10.7 0.0 2.6
18:42 5.3 5.2 99 1012.7 9.8 WSW 10.7 0.0 2.6
18:44 5.3 5.2 99 1012.6 6.9 WSW 10.7 0.0 2.6
18:45 5.3 5.2 99 1012.6 9.8 N 10.7 0.0 2.6
18:46 5.3 5.2 99 1012.7 8.3 S 10.7 0.0 2.6
18:48 5.3 5.2 99 1012.8 9.8 N 10.7 0.0 2.6
18:49 5.3 5.2 99 1012.7 7.6 S 10.7 0.0 2.6
18:50 5.3 5.2 99 1012.7 8.3 S 9.8 0.0 2.6
18:51 5.3 5.2 99 1012.7 9.8 S 9.8 0.0 2.6
18:53 5.3 5.2 99 1012.7 7.6 WSW 9.8 0.0 2.6
18:54 5.3 5.2 99 1012.7 6.9 S 9.8 0.0 2.6
18:56 5.3 5.2 99 1012.7 8.3 S 9.8 0.0 2.6
18:58 5.3 5.2 99 1012.6 9.8 WSW 9.8 0.0 2.6
18:59 5.3 5.2 99 1012.6 6.9 W 9.8 0.0 2.6
19:00 5.3 5.2 99 1012.7 6.9 WSW 9.8 0.0 2.6
19:01 5.3 5.2 99 1012.7 6.9 WSW 9.8 0.0 2.6
19:02 5.3 5.2 99 1012.7 6.9 WSW 9.8 0.0 2.6
19:03 5.3 5.2 99 1012.8 6.9 WSW 9.8 0.0 2.6
19:05 5.3 5.2 99 1012.6 6.9 WSW 9.8 0.0 2.6
19:06 5.4 5.3 99 1012.7 8.3 WSW 9.8 0.0 2.6
19:07 5.3 5.2 99 1012.5 8.3 S 9.8 0.0 2.6
19:08 5.4 5.3 99 1012.5 6.0 S 9.8 0.0 2.6
19:09 5.3 5.2 99 1012.4 6.9 WSW 8.3 0.0 2.6
19:10 5.4 5.3 99 1012.4 6.9 WSW 8.3 0.0 2.6
19:12 5.4 5.3 99 1012.7 7.6 WSW 8.3 0.0 2.6
19:13 5.4 5.3 99 1012.6 5.4 W 8.3 0.0 2.6
19:14 5.4 5.3 99 1012.8 6.0 W 8.3 0.0 2.6
19:15 5.3 5.2 99 1012.7 6.0 W 8.3 0.0 2.6
19:16 5.3 5.2 99 1012.7 7.6 WSW 8.3 0.0 2.6
19:17 5.3 5.2 99 1012.8 6.9 N 7.6 0.0 2.6
19:19 5.3 5.2 99 1012.7 3.8 W 7.6 0.0 2.6
19:20 5.3 5.2 99 1012.9 3.8 N 7.6 0.0 2.6
19:21 5.2 5.1 99 1012.7 3.8 W 7.6 0.0 2.6
19:22 5.3 5.2 99 1012.8 5.4 W 7.6 0.0 2.6
19:24 5.3 5.2 99 1012.8 5.4 WSW 7.6 0.0 2.6
19:25 5.2 5.1 99 1012.9 6.9 WSW 7.6 0.0 2.6
19:26 5.2 5.1 99 1012.7 3.8 WSW 7.6 0.0 2.6
19:27 5.2 5.1 99 1012.8 4.5 W 6.9 0.0 2.6
19:29 5.2 5.1 99 1012.8 2.2 W 6.9 0.0 2.6
19:30 5.1 5.0 99 1012.7 4.5 W 6.9 0.0 2.6
19:31 5.1 5.0 99 1012.7 3.8 W 6.9 0.0 2.6
19:32 5.1 5.0 99 1012.7 5.4 W 6.9 0.0 2.6
19:33 5.1 5.0 99 1012.7 9.2 WSW 9.2 0.0 2.6
19:35 5.0 4.9 99 1012.7 5.4 W 9.2 0.0 2.6
19:36 5.0 4.9 99 1012.8 6.0 N 9.2 0.0 2.6
19:38 5.0 4.9 99 1012.7 6.9 WSW 9.2 0.0 2.6
19:39 5.0 4.9 99 1012.9 6.0 N 9.2 0.0 2.6
19:41 4.9 4.8 99 1012.9 7.6 W 9.2 0.0 2.6
19:43 4.9 4.8 99 1012.9 7.6 WSW 9.2 0.0 2.6
19:44 4.9 4.8 99 1012.9 7.6 W 7.6 0.0 2.6
19:45 4.9 4.8 99 1012.8 6.9 W 7.6 0.0 2.6
19:46 4.9 4.8 99 1012.7 6.9 W 7.6 0.0 2.6
19:47 4.9 4.8 99 1012.7 6.0 WSW 7.6 0.0 2.6
19:49 4.9 4.8 99 1012.7 7.6 WSW 7.6 0.0 2.6
19:50 4.7 4.6 99 1012.8 6.0 SW 7.6 0.0 2.6
19:51 4.9 4.8 99 1012.7 7.6 WSW 8.3 0.0 2.6
19:52 4.9 4.8 99 1012.8 4.5 WSW 8.3 0.0 2.6
19:53 4.9 4.8 99 1012.8 8.3 WSW 8.3 0.0 2.6
19:54 4.9 4.8 99 1012.7 7.6 WSW 8.3 0.0 2.6
19:56 4.9 4.8 99 1012.9 9.2 WSW 9.2 0.0 2.6
19:57 4.9 4.8 99 1012.7 6.9 WSW 9.2 0.0 2.6
19:59 4.9 4.8 99 1012.7 6.0 WSW 9.2 0.0 2.6
20:00 4.9 4.8 99 1012.6 5.4 WSW 9.2 0.0 2.6
20:02 4.9 4.8 99 1012.6 5.4 WSW 9.2 0.0 2.6
20:03 4.9 4.8 99 1012.6 5.4 WSW 9.2 0.0 2.6
20:04 4.9 4.8 99 1012.6 5.4 WSW 9.2 0.0 2.6
20:06 4.9 4.8 99 1012.5 5.4 WSW 9.2 0.0 2.6
20:07 4.9 4.8 99 1012.4 8.3 WSW 8.3 0.0 2.6
20:09 4.9 4.8 99 1012.5 9.8 WSW 9.8 0.0 2.6
20:11 5.0 4.9 99 1012.3 8.3 N 9.8 0.0 2.6
20:12 5.0 4.9 99 1012.4 9.8 WSW 9.8 0.0 2.6
20:14 5.0 4.9 99 1012.3 6.9 WSW 9.8 0.0 2.6
20:16 5.0 4.9 99 1012.4 8.3 WSW 9.8 0.0 2.6
20:18 5.0 4.9 99 1012.4 9.8 NW 9.8 0.0 2.6
20:20 5.0 4.9 99 1012.3 9.8 NW 9.8 0.0 2.6
20:21 5.0 4.9 99 1012.4 8.3 W 9.8 0.0 2.6
20:23 5.0 4.9 99 1012.3 7.6 WSW 9.8 0.0 2.6
20:25 5.0 4.9 99 1012.4 7.6 WSW 9.8 0.0 2.6
20:26 5.1 5.0 99 1012.3 7.6 WSW 9.8 0.0 2.6
20:28 5.1 5.0 99 1012.3 8.3 WSW 9.8 0.0 2.6
20:30 5.1 5.0 99 1012.2 7.6 W 9.8 0.0 2.6
20:32 5.1 5.0 99 1012.3 9.2 WSW 9.8 0.0 2.6
20:34 5.1 5.0 99 1012.2 6.9 SW 9.8 0.0 2.6
20:36 5.1 5.0 99 1012.2 6.9 W 9.2 0.0 2.6
20:38 5.1 5.0 99 1012.2 6.9 W 9.2 0.0 2.6
20:40 5.1 5.0 99 1012.1 6.0 WSW 9.8 0.0 2.6
20:43 5.1 5.0 99 1012.2 6.0 W 9.8 0.0 2.6
20:44 5.1 5.0 99 1012.1 5.4 W 9.8 0.0 2.6
20:45 5.1 5.0 99 1012.2 6.9 W 9.8 0.0 2.6
20:48 5.1 5.0 99 1012.0 6.0 W 9.8 0.0 2.6
20:50 5.1 5.0 99 1012.1 6.9 WSW 7.6 0.0 2.6
20:51 5.1 5.0 99 1012.2 6.0 N 7.6 0.0 2.6
20:53 5.2 5.1 99 1012.1 6.0 N 7.6 0.0 2.6
20:54 5.2 5.1 99 1011.9 6.0 WSW 7.6 0.0 2.6
20:56 5.1 5.0 99 1012.0 6.9 WSW 8.3 0.0 2.6
20:58 5.2 5.1 99 1011.9 6.0 WSW 8.3 0.0 2.6
20:59 5.2 5.1 99 1012.1 6.9 NW 8.3 0.0 2.6
21:00 5.2 5.1 99 1012.1 7.6 WSW 8.3 0.0 2.6
21:01 5.2 5.1 99 1012.1 6.0 WSW 8.3 0.0 2.6
21:03 5.2 5.1 99 1012.2 6.0 WSW 8.3 0.0 2.6
21:04 5.2 5.1 99 1012.1 6.0 WSW 8.3 0.0 2.6
21:05 5.2 5.1 99 1012.2 6.0 WSW 8.3 0.0 2.6
21:06 5.2 5.1 99 1012.1 6.0 WSW 7.6 0.0 2.6
21:07 5.2 5.1 99 1011.9 6.0 S 7.6 0.0 2.6
21:09 5.2 5.1 99 1012.0 6.9 N 7.6 0.0 2.6
21:10 5.2 5.1 99 1012.0 5.4 S 7.6 0.0 2.6
21:11 5.3 5.2 99 1012.0 5.4 WSW 6.9 0.0 2.6
21:13 5.3 5.2 99 1011.9 6.0 WSW 6.9 0.0 2.6
21:15 5.3 5.2 99 1011.9 5.4 WSW 6.9 0.0 2.6
21:18 5.3 5.2 99 1012.0 3.8 WSW 7.6 0.0 2.6
21:19 5.3 5.2 99 1012.0 4.5 S 7.6 0.0 2.6
21:20 5.3 5.2 99 1012.1 4.5 WSW 7.6 0.0 2.6
21:21 5.3 5.2 99 1012.0 3.8 S 7.6 0.0 2.6
21:23 5.3 5.2 99 1011.9 3.8 S 7.6 0.0 2.6
21:24 5.4 5.3 99 1012.0 5.4 WSW 7.6 0.0 2.6
21:25 5.4 5.3 99 1011.9 3.8 WSW 7.6 0.0 2.6
21:26 5.4 5.3 99 1012.0 5.4 W 7.6 0.0 2.6
21:27 5.4 5.3 99 1011.9 6.0 S 6.9 0.0 2.6
21:29 5.4 5.3 99 1011.9 5.4 WSW 6.0 0.8 2.6
21:30 5.4 5.3 99 1012.0 6.0 WSW 6.0 0.8 2.6
21:31 5.4 5.3 99 1012.0 5.4 WSW 6.0 1.5 2.7
21:33 5.5 5.4 99 1011.9 5.4 WSW 6.0 0.8 2.7
21:34 5.5 5.4 99 1011.8 7.6 S 9.2 1.5 2.8
21:36 5.5 5.4 99 1011.9 7.6 S 9.2 1.5 2.8
21:37 5.5 5.4 99 1011.8 13.6 WSW 13.6 2.3 3.0
21:38 5.5 5.4 99 1011.9 13.0 WSW 13.6 3.0 3.0
21:40 5.6 5.5 99 1011.9 13.0 WSW 13.6 2.3 3.1
21:41 5.6 5.5 99 1011.9 9.2 W 13.6 3.0 3.1
21:42 5.6 5.5 99 1011.9 9.8 W 13.6 3.0 3.1
21:44 5.7 5.6 99 1011.7 9.8 S 13.6 2.3 3.2
21:45 5.7 5.6 99 1011.6 4.5 S 13.6 3.0 3.3
21:46 5.7 5.6 99 1011.7 9.2 S 13.6 2.3 3.3
21:47 5.7 5.6 99 1011.6 6.0 N 13.6 1.5 3.3
21:48 5.7 5.6 99 1011.6 6.0 S 13.0 0.8 3.3
21:49 5.7 5.6 99 1011.7 12.1 S 13.0 0.8 3.3
21:50 5.7 5.6 99 1011.7 9.8 WSW 13.0 0.0 3.3
21:52 5.7 5.6 99 1011.7 9.2 WSW 12.1 0.0 3.3
21:53 5.7 5.6 99 1011.6 7.6 W 12.1 0.0 3.3
21:54 5.7 5.6 99 1011.7 4.5 WSW 12.1 0.0 3.3
21:55 5.7 5.6 99 1011.7 6.0 WSW 12.1 0.0 3.3
21:57 5.7 5.6 99 1011.6 5.4 S 12.1 0.0 3.3
21:58 5.7 5.6 99 1011.3 5.4 S 12.1 0.0 3.3
21:59 5.7 5.6 99 1011.6 5.4 WSW 12.1 0.0 3.3
22:00 5.7 5.6 99 1011.5 4.5 WSW 9.2 0.0 3.3
22:02 5.7 5.6 99 1011.4 5.4 WSW 7.6 0.0 3.3
22:03 5.7 5.6 99 1011.5 5.4 WSW 7.6 0.0 3.3
22:04 5.7 5.6 99 1011.4 5.4 WSW 6.0 0.0 3.3
22:05 5.7 5.6 99 1011.4 5.4 WSW 6.0 0.0 3.3
22:06 5.7 5.6 99 1011.4 5.4 WSW 5.4 0.0 3.3
22:07 5.7 5.6 99 1011.4 3.8 S 5.4 0.8 3.3
22:08 5.6 5.5 99 1011.4 3.8 S 5.4 0.8 3.3
22:09 5.7 5.6 99 1011.4 3.1 S 5.4 0.8 3.3
22:11 5.7 5.6 99 1011.3 4.5 S 5.4 0.8 3.3
22:12 5.7 5.6 99 1011.4 4.5 S 5.4 0.0 3.3
22:15 5.7 5.6 99 1011.4 3.8 S 5.4 0.0 3.3
22:16 5.7 5.6 99 1011.3 3.1 S 4.5 0.8 3.4
22:18 5.7 5.6 99 1011.2 3.8 N 4.5 0.8 3.4
22:20 5.7 5.6 99 1011.4 4.5 WSW 4.5 0.8 3.4
22:21 5.7 5.6 99 1011.2 3.1 S 4.5 0.0 3.4
22:23 5.7 5.6 99 1011.1 3.1 S 4.5 0.0 3.4
22:25 5.6 5.5 99 1011.2 3.8 N 5.4 0.0 3.4
22:26 5.6 5.5 99 1011.2 4.5 S 5.4 0.0 3.4
22:28 5.7 5.6 99 1011.0 4.5 S 5.4 0.0 3.4
22:29 5.6 5.5 99 1011.1 5.4 S 5.4 0.0 3.4
22:30 5.6 5.5 99 1011.1 4.5 S 5.4 0.0 3.4
22:31 5.6 5.5 99 1011.2 4.5 S 5.4 0.0 3.5
22:33 5.6 5.5 99 1010.9 4.5 S 5.4 0.8 3.5
22:34 5.6 5.5 99 1011.0 6.9 S 6.9 0.8 3.5
22:35 5.6 5.5 99 1010.8 6.0 WSW 6.9 0.8 3.5
22:36 5.6 5.5 99 1010.9 4.5 WSW 6.9 1.5 3.5
22:37 5.6 5.5 99 1010.8 5.4 S 6.9 0.8 3.5
22:38 5.6 5.5 99 1011.0 5.4 S 6.9 0.8 3.5
22:40 5.6 5.5 99 1010.9 3.8 N 6.9 1.5 3.6
22:41 5.6 5.5 99 1010.7 3.8 S 6.9 0.8 3.6
22:42 5.6 5.5 99 1011.0 5.4 S 6.9 0.8 3.6
22:43 5.6 5.5 99 1010.7 5.4 S 6.9 0.8 3.6
22:44 5.6 5.5 99 1010.8 6.0 WSW 6.9 0.8 3.6
22:45 5.6 5.5 99 1010.9 6.0 S 6.0 0.0 3.6
22:46 5.6 5.5 99 1010.6 6.9 WSW 6.9 0.8 3.7
22:47 5.7 5.6 99 1010.7 5.4 S 6.9 0.8 3.7
22:49 5.7 5.6 99 1010.6 4.5 S 6.9 0.8 3.7
22:50 5.7 5.6 99 1010.6 3.8 S 6.9 0.8 3.7
22:51 5.7 5.6 99 1010.6 5.4 WSW 6.9 0.0 3.7
22:52 5.7 5.6 99 1010.5 6.0 S 6.9 0.0 3.7
22:53 5.7 5.6 99 1010.4 3.8 S 6.9 0.8 3.7
22:55 5.7 5.6 99 1010.7 5.4 S 6.9 0.8 3.7
22:56 5.7 5.6 99 1010.5 5.4 S 6.9 0.8 3.7
22:57 5.8 5.7 99 1010.3 5.4 S 7.6 0.8 3.7
22:58 5.8 5.7 99 1010.4 4.5 S 7.6 0.0 3.7
22:59 5.8 5.7 99 1010.3 6.0 S 7.6 0.0 3.7
23:00 5.8 5.7 99 1010.3 7.6 S 7.6 0.0 3.7
23:01 5.8 5.7 99 1010.2 7.6 S 7.6 0.0 3.7
23:03 5.8 5.7 99 1010.2 7.6 S 7.6 0.0 3.7
23:04 5.8 5.7 99 1010.2 7.6 S 7.6 0.0 3.7
23:05 5.8 5.7 99 1010.0 7.6 S 7.6 0.0 3.7
23:06 5.8 5.7 99 1010.0 7.6 S 7.6 0.0 3.7
23:07 6.0 5.9 99 1010.0 6.0 S 7.6 0.0 3.8
23:08 6.0 5.9 99 1010.0 5.4 S 7.6 0.8 3.8
23:09 6.0 5.9 99 1009.9 6.9 S 7.6 0.8 3.8
23:10 6.0 5.9 99 1009.9 7.6 S 7.6 0.8 3.8
23:12 6.0 5.9 99 1009.7 5.4 S 7.6 1.5 3.8
23:13 6.0 5.9 99 1009.7 6.0 S 7.6 0.8 3.8
23:14 6.0 5.9 99 1009.9 6.9 S 7.6 0.8 3.8
23:15 6.1 6.0 99 1009.9 6.0 S 7.6 0.8 3.8
23:16 6.0 5.9 99 1009.9 6.0 S 7.6 0.8 3.8
23:17 6.1 6.0 99 1009.8 7.6 S 7.6 0.0 3.8
23:18 6.1 6.0 99 1009.9 8.3 S 8.3 0.0 3.8
23:19 6.1 6.0 99 1009.8 5.4 S 8.3 0.8 3.9
23:20 6.1 6.0 99 1009.8 5.4 S 8.3 0.8 3.9
23:21 6.1 6.0 99 1009.7 5.4 S 8.3 0.8 3.9
23:23 6.1 6.0 99 1009.7 6.9 S 8.3 0.8 3.9
23:24 6.1 6.0 99 1009.8 6.0 S 8.3 0.8 4.0
23:25 6.1 6.0 99 1009.6 4.5 S 8.3 0.8 4.0
23:26 6.1 6.0 99 1009.6 4.5 S 8.3 0.8 4.0
23:27 6.1 6.0 99 1009.7 4.5 S 8.3 0.8 4.0
23:28 6.1 6.0 99 1009.6 4.5 S 6.9 1.5 4.0
23:29 6.1 6.0 99 1009.6 4.5 S 6.9 0.8 4.0
23:31 6.1 6.0 99 1009.5 5.4 S 6.9 1.5 4.1
23:32 6.1 6.0 99 1009.5 5.4 S 6.9 1.5 4.1
23:33 6.2 6.1 99 1009.4 6.0 S 6.0 1.5 4.2
23:34 6.1 6.0 99 1009.4 6.0 WSW 6.0 1.5 4.2
23:35 6.1 6.0 99 1009.2 6.0 S 6.9 1.5 4.2
23:37 6.1 6.0 99 1009.4 6.0 S 6.9 1.5 4.2
23:38 6.3 6.2 99 1009.4 5.4 S 6.9 0.8 4.2
23:39 6.1 6.0 99 1009.4 5.4 S 6.9 1.5 4.3
23:40 6.2 6.1 99 1009.2 4.5 S 6.9 1.5 4.3
23:41 6.2 6.1 99 1009.4 4.5 S 6.9 1.5 4.3
23:42 6.2 6.1 99 1009.3 5.4 S 6.9 1.5 4.3
23:43 6.2 6.1 99 1009.3 5.4 S 6.9 2.3 4.4
23:44 6.2 6.1 99 1009.4 4.5 S 6.9 1.5 4.4
23:46 6.2 6.1 99 1009.2 6.0 S 6.0 1.5 4.5
23:47 6.2 6.1 99 1009.2 6.9 S 6.9 1.5 4.5
23:48 6.2 6.1 99 1009.0 4.5 S 6.9 0.8 4.5
23:50 6.2 6.1 99 1008.9 5.4 S 6.9 1.5 4.6
23:53 6.3 6.2 99 1009.2 7.6 S 7.6 1.5 4.7
23:54 6.3 6.2 99 1009.1 9.2 S 9.2 1.5 4.7
23:55 6.1 6.0 99 1009.0 7.6 S 9.2 1.5 4.7
23:56 6.3 6.2 99 1009.1 7.6 S 9.2 1.5 4.7
23:57 6.3 6.2 99 1009.1 9.2 S 9.2 1.5 4.8
23:58 6.4 6.3 99 1008.9 9.2 S 9.2 2.3 4.8
23:59 6.4 6.3 99 1008.7 9.2 S 9.2 1.5 4.9

UK - WEATHER STATION TOPSITES - UK World Weather Websites

This is a private weather station, never base important decisions or events on data from this weather station. Although every effort has been made to make the data as accurate as possible it does not meet MetOffice standards. It is proved as a guide of local weather conditions. We accept no liability for any loss which may arise from use of the data.

Copyright © Carnkie Weather 2009 - 2018.